Flight Track Log - Related Links

Times and Time Zones

All times are in EDT time to prevent confusion due to time zone crossing. See the UAL48 flight status page for this flight to view local times or setup timezone preferences in your user account.

Time Position Orientation Groundspeed Altitude Reporting Facility
EDT Latitude Longitude Course Direction KTS MPH feet Rate Location/Type
Tue 08:46:57 PM 40.6747 -74.1800 206° Southwest 188 216 100  Level FlightAware ADS-B
Tue 08:47:14 PM 40.6619 -74.1876 204° Southwest 184 212 900 2,571 Climbing FlightAware ADS-B
Tue 08:47:18 PM 40.6586 -74.1884 190° South 181 208 1,000 1,125 Climbing FlightAware ADS-B
Tue 08:47:30 PM 40.6479 -74.1915 192° South 192 221 1,200 1,250 Climbing FlightAware ADS-B
Tue 08:47:42 PM 40.6391 -74.1995 215° Southwest 206 237 1,500 1,125 Climbing FlightAware ADS-B
Tue 08:47:46 PM 40.6366 -74.2037 232° Southwest 211 243 1,500 857 Level FlightAware ADS-B
Tue 08:47:49 PM 40.6351 -74.2071 240° Southwest 215 247 1,600 1,333 Climbing FlightAware ADS-B
Tue 08:47:55 PM 40.6330 -74.2143 249° West 222 255 1,700 1,200 Climbing FlightAware ADS-B
Tue 08:47:59 PM 40.6321 -74.2199 258° West 229 264 1,800 1,000 Climbing FlightAware ADS-B
Tue 08:48:07 PM 40.6322 -74.2309 271° West 240 276 1,900 600 Climbing FlightAware ADS-B
Tue 08:48:19 PM 40.6368 -74.2479 290° West 257 296 2,000 1,000 Climbing FlightAware ADS-B
Tue 08:48:25 PM 40.6416 -74.2563 307° West 260 299 2,200 1,421 Climbing FlightAware ADS-B
Tue 08:48:57 PM 40.6720 -74.2730 337° Northwest 267 307 2,900 1,615 Climbing FlightAware ADS-B
Tue 08:49:17 PM 40.6970 -74.2610 20° North 265 305 3,600 2,308 Climbing FlightAware ADS-B
Tue 08:49:36 PM 40.7160 -74.2390 41° Northeast 262 302 4,400 2,690 Climbing FlightAware ADS-B
Tue 08:49:46 PM 40.7246 -74.2258 49° Northeast 260 299 4,900 2,727 Climbing FlightAware ADS-B
Tue 08:49:58 PM 40.7328 -74.2117 52° Northeast 259 298 5,400 2,444 Climbing FlightAware ADS-B
Tue 08:50:13 PM 40.7438 -74.1922 53° Northeast 260 299 6,000 2,118 Climbing FlightAware ADS-B
Tue 08:50:32 PM 40.7572 -74.1685 53° Northeast 263 303 6,600 2,053 Climbing FlightAware ADS-B
Tue 08:50:51 PM 40.7710 -74.1439 53° Northeast 264 304 7,300 2,118 Climbing FlightAware ADS-B
Tue 08:51:06 PM 40.7829 -74.1233 53° Northeast 271 312 7,800 1,935 Climbing FlightAware ADS-B
Tue 08:51:22 PM 40.7951 -74.1018 53° Northeast 276 318 8,300 2,000 Climbing FlightAware ADS-B
Tue 08:51:39 PM 40.8084 -74.0787 53° Northeast 281 323 8,900 2,000 Climbing FlightAware ADS-B
Tue 08:51:55 PM 40.8204 -74.0579 53° Northeast 284 327 9,400 1,548 Climbing FlightAware ADS-B
Tue 08:52:10 PM 40.8326 -74.0367 53° Northeast 283 326 9,700 800 Climbing FlightAware ADS-B
Tue 08:52:25 PM 40.8449 -74.0153 53° Northeast 286 329 9,800 387 Climbing FlightAware ADS-B
Tue 08:52:41 PM 40.8577 -73.9927 53° Northeast 302 348 9,900  Climbing FlightAware ADS-B
Tue 08:52:48 PM 40.8637 -73.9822 53° Northeast 311 358 9,800 -333 Descending FlightAware ADS-B
Tue 08:52:59 PM 40.8734 -73.9653 53° Northeast 328 377 9,800  Level FlightAware ADS-B
Tue 08:53:05 PM 40.8788 -73.9557 53° Northeast 336 387 9,800  Level FlightAware ADS-B
Tue 08:53:11 PM 40.8849 -73.9438 56° Northeast 345 397 9,800  Level FlightAware ADS-B
Tue 08:53:14 PM 40.8871 -73.9387 60° Northeast 346 398 9,800  Level FlightAware ADS-B
Tue 08:53:16 PM 40.8885 -73.9351 63° Northeast 349 402 9,800  Level FlightAware ADS-B
Tue 08:53:22 PM 40.8923 -73.9228 68° East 352 405 9,800  Level FlightAware ADS-B
Tue 08:53:24 PM 40.8930 -73.9202 70° East 351 404 9,800  Level FlightAware ADS-B
Tue 08:53:42 PM 40.9016 -73.8827 73° East 355 409 9,800  Level FlightAware ADS-B
Tue 08:53:58 PM 40.9090 -73.8487 74° East 355 409 9,800 100 Level FlightAware ADS-B
Tue 08:54:42 PM 40.9280 -73.7590 74° East 366 421 9,900 1,000 Climbing FlightAware ADS-B
Tue 08:55:22 PM 40.9660 -73.6830 56° Northeast 378 435 11,200 1,950 Climbing FlightAware ADS-B
Tue 08:56:02 PM 41.0280 -73.6350 30° Northeast 389 448 12,500 1,925 Climbing FlightAware ADS-B
Tue 08:56:15 PM 41.0508 -73.6197 27° Northeast 392 451 12,900 1,674 Climbing FlightAware ADS-B
Tue 08:56:45 PM 41.1000 -73.5857 28° Northeast 397 457 13,700 1,742 Climbing FlightAware ADS-B
Tue 08:57:17 PM 41.1518 -73.5492 28° Northeast 404 465 14,700 1,701 Climbing FlightAware ADS-B
Tue 08:57:52 PM 41.2100 -73.5076 28° Northeast 404 465 15,600 1,453 Climbing FlightAware ADS-B
Tue 08:58:52 PM 41.3070 -73.4380 28° Northeast 418 481 17,000 1,148 Climbing FlightAware ADS-B
Tue 08:59:47 PM 41.3980 -73.3730 28° Northeast 423 487 17,800 1,453 Climbing FlightAware ADS-B
Tue 09:00:27 PM 41.4770 -73.3440 15° North 435 501 19,300 1,694 Climbing FlightAware ADS-B
Tue 09:01:12 PM 41.5660 -73.3380 North 446 513 20,200 1,271 Climbing FlightAware ADS-B
Tue 09:01:52 PM 41.6540 -73.3330 North 450 518 21,100 1,368 Climbing FlightAware ADS-B
Tue 09:02:09 PM 41.6940 -73.3304 North 454 522 21,500 600 Climbing FlightAware ADS-B
Tue 09:02:42 PM 41.7530 -73.3280 North 453 521 21,600 1,157 Climbing FlightAware ADS-B
Tue 09:03:32 PM 41.8640 -73.3190 North 462 532 23,100 1,624 Climbing FlightAware ADS-B
Tue 09:04:07 PM 41.9410 -73.3140 North 463 533 23,900 1,200 Climbing FlightAware ADS-B
Tue 09:04:47 PM 42.0230 -73.3080 North 467 537 24,600 494 Climbing FlightAware ADS-B
Tue 09:05:32 PM 42.1130 -73.3040 North 467 537 24,600  Level FlightAware ADS-B
Tue 09:06:22 PM 42.2050 -73.3000 North 467 537 24,600 1,700 Level FlightAware ADS-B
Tue 09:06:32 PM 42.2340 -73.2100 66° East 472 543 26,300 2,040 Climbing FlightAware ADS-B
Tue 09:07:12 PM 42.2980 -73.1470 36° Northeast 472 543 26,300 947 Level FlightAware ADS-B
Tue 09:07:32 PM 42.3110 -73.1310 42° Northeast 27,300 1,636 Climbing FlightAware ADS-B
Tue 09:08:07 PM 42.4040 -73.0350 37° Northeast 479 551 27,800 600 Climbing FlightAware ADS-B
Tue 09:08:52 PM 42.4760 -72.9600 38° Northeast 481 554 28,100 706 Climbing FlightAware ADS-B
Tue 09:09:32 PM 42.5520 -72.8820 37° Northeast 489 563 28,800 918 Climbing FlightAware ADS-B
Tue 09:10:17 PM 42.6370 -72.7940 37° Northeast 494 568 29,400 800 Climbing FlightAware ADS-B
Tue 09:11:02 PM 42.7160 -72.7120 37° Northeast 495 570 30,000 847 Climbing FlightAware ADS-B
Tue 09:11:42 PM 42.7900 -72.6350 37° Northeast 494 568 30,600 706 Climbing FlightAware ADS-B
Tue 09:12:27 PM 42.8720 -72.5480 38° Northeast 490 564 31,000 267 Climbing FlightAware ADS-B
Tue 09:13:12 PM 42.9500 -72.4660 38° Northeast 490 564 31,000  Level FlightAware ADS-B
Tue 09:13:52 PM 43.0230 -72.3890 38° Northeast 490 564 31,000  Level FlightAware ADS-B
Tue 09:14:32 PM 43.0940 -72.3140 38° Northeast 487 560 31,000  Level FlightAware ADS-B
Tue 09:15:17 PM 43.1760 -72.2270 38° Northeast 488 562 31,000  Level FlightAware ADS-B
Tue 09:15:52 PM 43.2360 -72.1620 38° Northeast 486 559 31,000  Level FlightAware ADS-B
Tue 09:16:42 PM 43.3250 -72.0680 38° Northeast 488 562 31,000  Level FlightAware ADS-B
Tue 09:17:22 PM 43.3960 -71.9920 38° Northeast 487 560 31,000  Level FlightAware ADS-B
Tue 09:18:07 PM 43.4780 -71.9040 38° Northeast 490 564 31,000  Level FlightAware ADS-B
Tue 09:18:47 PM 43.5490 -71.8270 38° Northeast 490 564 31,000  Level FlightAware ADS-B
Tue 09:19:27 PM 43.6210 -71.7490 38° Northeast 488 562 31,000  Level FlightAware ADS-B
Tue 09:20:12 PM 43.6980 -71.6660 38° Northeast 489 563 31,000  Level FlightAware ADS-B
Tue 09:20:52 PM 43.7700 -71.5870 38° Northeast 488 562 31,000  Level FlightAware ADS-B
Tue 09:21:37 PM 43.8500 -71.4990 38° Northeast 486 559 31,000  Level FlightAware ADS-B
Tue 09:22:17 PM 43.9220 -71.4200 38° Northeast 487 560 31,000  Level FlightAware ADS-B
Tue 09:22:57 PM 43.9920 -71.3430 38° Northeast 486 559 31,000  Level FlightAware ADS-B
Tue 09:23:42 PM 44.0650 -71.2630 38° Northeast 481 554 31,000  Level FlightAware ADS-B
Tue 09:24:22 PM 44.1390 -71.1800 39° Northeast 488 562 31,000  Level FlightAware ADS-B
Tue 09:25:02 PM 44.2070 -71.1050 38° Northeast 490 564 31,000  Level FlightAware ADS-B
Tue 09:25:47 PM 44.2890 -71.0140 38° Northeast 490 564 31,000  Level FlightAware ADS-B
Tue 09:26:27 PM 44.3620 -70.9320 39° Northeast 488 562 31,000  Level FlightAware ADS-B
Tue 09:27:12 PM 44.4380 -70.8470 39° Northeast 487 560 31,000  Level FlightAware ADS-B
Tue 09:27:52 PM 44.5100 -70.7660 39° Northeast 485 558 31,000  Level FlightAware ADS-B
Tue 09:28:47 PM 44.6040 -70.6600 39° Northeast 484 557 31,000  Level FlightAware ADS-B
Tue 09:29:27 PM 44.6740 -70.5800 39° Northeast 485 558 31,000  Level FlightAware ADS-B
Tue 09:30:12 PM 44.7520 -70.4920 39° Northeast 485 558 31,000  Level FlightAware ADS-B
Tue 09:30:57 PM 44.8330 -70.3990 39° Northeast 485 558 31,000  Level FlightAware ADS-B
Tue 09:31:37 PM 44.8980 -70.3250 39° Northeast 485 558 31,000  Level FlightAware ADS-B
Tue 09:32:17 PM 44.9650 -70.2470 39° Northeast 490 564 31,000  Level FlightAware ADS-B
Tue 09:33:02 PM 45.0460 -70.1530 39° Northeast 493 567 31,000  Level FlightAware ADS-B
Tue 09:33:42 PM 45.1160 -70.0730 39° Northeast 491 565 31,000  Level FlightAware ADS-B
Tue 09:34:27 PM 45.1930 -69.9830 39° Northeast 490 564 31,000  Level FlightAware ADS-B
Tue 09:35:02 PM 45.2560 -69.9090 40° Northeast 488 562 31,000  Level FlightAware ADS-B
Tue 09:35:47 PM 45.3350 -69.8180 39° Northeast 489 563 31,000  Level FlightAware ADS-B
Tue 09:36:32 PM 45.4120 -69.7260 40° Northeast 489 563 31,000  Level FlightAware ADS-B
Tue 09:37:12 PM 45.4810 -69.6450 39° Northeast 487 560 31,000  Level FlightAware ADS-B
Tue 09:37:57 PM 45.5600 -69.5520 39° Northeast 485 558 31,000  Level FlightAware ADS-B
Tue 09:38:32 PM 45.6190 -69.4810 40° Northeast 487 560 31,000  Level FlightAware ADS-B
Tue 09:39:17 PM 45.6960 -69.3910 39° Northeast 486 559 31,000  Level FlightAware ADS-B
Tue 09:40:02 PM 45.7740 -69.2970 40° Northeast 486 559 31,000  Level FlightAware ADS-B
Tue 09:40:42 PM 45.8430 -69.2140 40° Northeast 488 562 31,000  Level FlightAware ADS-B
Tue 09:41:27 PM 45.9210 -69.1200 40° Northeast 486 559 31,000  Level FlightAware ADS-B
Tue 09:42:07 PM 45.9880 -69.0390 40° Northeast 483 556 31,000  Level FlightAware ADS-B
Tue 09:42:47 PM 46.0570 -68.9560 40° Northeast 484 557 31,000  Level FlightAware ADS-B
Tue 09:43:32 PM 46.1340 -68.8620 40° Northeast 490 564 31,000  Level FlightAware ADS-B
Tue 09:44:12 PM 46.2030 -68.7780 40° Northeast 491 565 31,000  Level FlightAware ADS-B
Tue 09:44:52 PM 46.2720 -68.6930 40° Northeast 490 564 31,000  Level FlightAware ADS-B
Tue 09:45:37 PM 46.3500 -68.5970 40° Northeast 491 565 31,000  Level FlightAware ADS-B
Tue 09:46:17 PM 46.4190 -68.5130 40° Northeast 492 566 31,000  Level FlightAware ADS-B
Tue 09:47:02 PM 46.4960 -68.4180 40° Northeast 492 566 31,000  Level FlightAware ADS-B
Tue 09:47:32 PM 46.5430 -68.3590 41° Northeast 491 565 31,000  Level FlightAware ADS-B
Tue 09:48:27 PM 46.6300 -68.2520 40° Northeast 490 564 31,000  Level FlightAware ADS-B
Tue 09:49:07 PM 46.7090 -68.1510 41° Northeast 485 558 31,000  Level FlightAware ADS-B
Tue 09:50:02 PM 46.8060 -68.0300 40° Northeast 485 558 31,000  Level FlightAware ADS-B
Tue 09:50:37 PM 46.8560 -67.9660 41° Northeast 484 557 31,000  Level FlightAware ADS-B
Tue 09:51:37 PM 46.9630 -67.8320 40° Northeast 484 557 31,000  Level FlightAware ADS-B
Tue 09:52:17 PM 47.0210 -67.7610 40° Northeast 484 557 31,000  Level FlightAware ADS-B
Tue 09:53:07 PM 47.0940 -67.6710 40° Northeast 484 557 31,000  Level FlightAware ADS-B
Tue 09:53:47 PM 47.1530 -67.5990 40° Northeast 484 557 31,000  Level FlightAware ADS-B
Tue 09:54:27 PM 47.2110 -67.5270 40° Northeast 484 557 31,000  Level FlightAware ADS-B
Tue 09:55:07 PM 47.2690 -67.4550 40° Northeast 484 557 31,000  Level FlightAware ADS-B
Tue 09:55:47 PM 47.3270 -67.3830 40° Northeast 484 557 31,000  Level FlightAware ADS-B
Tue 09:56:27 PM 47.3860 -67.3100 40° Northeast 484 557 31,000  Level FlightAware ADS-B
Tue 09:57:17 PM 47.4590 -67.2200 40° Northeast 484 557 31,000  Level FlightAware ADS-B
Tue 09:57:57 PM 47.5170 -67.1480 40° Northeast 484 557 31,000  Level FlightAware ADS-B
Tue 09:58:37 PM 47.5750 -67.0750 40° Northeast 484 557 31,000  Level FlightAware ADS-B
Tue 09:59:17 PM 47.6340 -67.0020 40° Northeast 484 557 31,000  Level FlightAware ADS-B
Tue 10:00:07 PM 47.7070 -66.9120 40° Northeast 484 557 31,000  Level FlightAware ADS-B
Tue 10:00:47 PM 47.7650 -66.8390 40° Northeast 484 557 31,000  Level FlightAware ADS-B
Tue 10:01:11 PM 47.9000 -66.5167 40° Northeast 490 564 31,000  Level Moncton Center
Tue 10:02:11 PM 48.0000 -66.3500 48° Northeast 490 564 31,000  Level Moncton Center
Tue 10:03:10 PM 48.0833 -66.2000 50° Northeast 490 564 31,000  Level Moncton Center
Tue 10:04:11 PM 48.1833 -66.0500 45° Northeast 480 552 31,000 -149 Level Moncton Center
Tue 10:05:11 PM 48.2833 -65.9000 45° Northeast 490 564 30,700 -655 Descending Moncton Center
Tue 10:06:10 PM 48.3833 -65.7500 45° Northeast 480 552 29,700 -756 Descending Moncton Center
Tue 10:07:10 PM 48.4667 -65.6333 43° Northeast 470 541 29,200 -347 Descending Moncton Center
Tue 10:08:11 PM 48.5500 -65.4833 50° Northeast 450 518 29,000 -100 Descending Moncton Center
Tue 10:09:10 PM 48.6333 -65.3667 43° Northeast 430 495 29,000  Level Moncton Center
Tue 10:10:10 PM 48.7167 -65.2333 47° Northeast 430 495 29,000  Level Moncton Center
Tue 10:11:10 PM 48.8000 -65.1167 43° Northeast 420 483 29,000  Level Moncton Center
Tue 10:12:11 PM 48.8667 -64.9833 53° Northeast 420 483 29,000  Level Moncton Center
Tue 10:13:10 PM 48.9500 -64.8333 50° Northeast 410 472 29,000  Level Moncton Center
Tue 10:14:10 PM 49.0333 -64.7333 38° Northeast 420 483 29,000  Level Moncton Center
Tue 10:15:10 PM 49.1000 -64.5833 56° Northeast 410 472 29,000  Level Moncton Center
Tue 10:15:27 PM 49.1333 -64.5500 33° Northeast 410 472 29,000  Level Gander Center
Tue 10:16:27 PM 49.2000 -64.4333 49° Northeast 420 483 29,000  Level Gander Center
Tue 10:17:10 PM 49.2667 -64.3167 49° Northeast 420 483 29,000  Level Moncton Center
Tue 10:18:10 PM 49.3500 -64.1833 46° Northeast 430 495 29,000  Level Moncton Center
Tue 10:19:10 PM 49.4333 -64.0667 42° Northeast 430 495 29,000  Level Moncton Center
Tue 10:20:10 PM 49.5167 -63.9000 52° Northeast 440 506 29,000  Level Moncton Center
Tue 10:21:10 PM 49.5833 -63.7833 49° Northeast 450 518 29,000  Level Moncton Center
Tue 10:21:27 PM 49.6333 -63.7333 33° Northeast 450 518 29,000  Level Gander Center
Tue 10:22:27 PM 49.7167 -63.6167 42° Northeast 450 518 29,000  Level Gander Center
Tue 10:23:10 PM 49.7667 -63.4833 60° Northeast 460 529 29,000  Level Moncton Center
Tue 10:24:10 PM 49.8500 -63.3333 49° Northeast 460 529 29,000  Level Moncton Center
Tue 10:24:27 PM 49.8833 -63.3000 33° Northeast 460 529 29,000  Level Gander Center
Tue 10:25:27 PM 49.9667 -63.1500 49° Northeast 460 529 29,000  Level Gander Center
Tue 10:26:10 PM 50.0333 -63.0500 44° Northeast 460 529 29,000  Level Moncton Center
Tue 10:27:10 PM 50.1167 -62.9167 46° Northeast 460 529 29,000  Level Moncton Center
Tue 10:27:27 PM 50.1500 -62.8500 52° Northeast 470 541 29,000  Level Gander Center
Tue 10:28:27 PM 50.2333 -62.7000 49° Northeast 460 529 29,000  Level Gander Center
Tue 10:29:27 PM 50.3167 -62.5333 52° Northeast 470 541 29,000  Level Gander Center
Tue 10:30:27 PM 50.4000 -62.3833 49° Northeast 480 552 29,000  Level Gander Center
Tue 10:31:27 PM 50.4833 -62.2500 45° Northeast 470 541 29,000  Level Gander Center
Tue 10:32:27 PM 50.5667 -62.0667 54° Northeast 470 541 29,000  Level Gander Center
Tue 10:33:27 PM 50.6500 -61.9333 45° Northeast 450 518 29,000  Level Gander Center
Tue 10:34:27 PM 50.7500 -61.7500 49° Northeast 480 552 29,000 200 Level Gander Center
Tue 10:35:27 PM 50.8333 -61.6000 49° Northeast 480 552 29,400 650 Climbing Gander Center
Tue 10:36:27 PM 50.9167 -61.4333 52° Northeast 490 564 30,300 850 Climbing Gander Center
Tue 10:37:27 PM 51.0000 -61.2833 49° Northeast 490 564 31,100 800 Climbing Gander Center
Tue 10:38:27 PM 51.0833 -61.1167 51° Northeast 490 564 31,900 750 Climbing Gander Center
Tue 10:39:27 PM 51.1833 -60.9667 43° Northeast 490 564 32,600 550 Climbing Gander Center
Tue 10:40:27 PM 51.2667 -60.7667 56° Northeast 500 575 33,000 200 Climbing Gander Center
Tue 10:41:27 PM 51.3667 -60.6167 43° Northeast 500 575 33,000  Level Gander Center
Tue 10:42:27 PM 51.4500 -60.4500 51° Northeast 490 564 33,000  Level Gander Center
Tue 10:43:27 PM 51.5500 -60.2667 49° Northeast 490 564 33,000  Level Gander Center
Tue 10:44:27 PM 51.6167 -60.1000 57° Northeast 500 575 33,000  Level Gander Center
Tue 10:45:27 PM 51.7167 -59.9000 51° Northeast 500 575 33,000  Level Gander Center
Tue 10:46:27 PM 51.8000 -59.7333 51° Northeast 500 575 33,000  Level Gander Center
Tue 10:47:27 PM 51.8833 -59.5833 48° Northeast 500 575 33,000  Level Gander Center
Tue 10:48:27 PM 51.9667 -59.3833 56° Northeast 500 575 33,000  Level Gander Center
Tue 10:49:27 PM 52.0333 -59.2167 57° Northeast 510 587 33,000  Level Gander Center
Tue 10:50:10 PM 52.1000 -59.0833 51° Northeast 510 587 33,000  Level Moncton Center
Tue 10:50:27 PM 52.1333 -59.0167 51° Northeast 510 587 33,000  Level Gander Center
Tue 10:51:27 PM 52.2167 -58.8333 53° Northeast 510 587 33,000  Level Gander Center
Tue 10:52:27 PM 52.3000 -58.6333 56° Northeast 510 587 33,000  Level Gander Center
Tue 10:53:27 PM 52.3833 -58.4667 51° Northeast 510 587 33,000  Level Gander Center
Tue 10:54:27 PM 52.4667 -58.2667 56° Northeast 510 587 33,000  Level Gander Center
Tue 10:55:27 PM 52.5500 -58.0667 56° Northeast 510 587 33,000  Level Gander Center
Tue 10:56:27 PM 52.6333 -57.9000 50° Northeast 520 598 33,000  Level Gander Center
Tue 10:57:27 PM 52.7167 -57.7000 55° Northeast 520 598 33,000  Level Gander Center
Tue 10:58:27 PM 52.8000 -57.5000 55° Northeast 520 598 33,000  Level Gander Center
Tue 10:59:27 PM 52.9000 -57.2833 53° Northeast 520 598 33,000  Level Gander Center
Tue 11:00:27 PM 52.9667 -57.1167 56° Northeast 520 598 33,000  Level Gander Center
Tue 11:01:27 PM 53.0667 -56.9167 50° Northeast 520 598 33,000  Level Gander Center
Tue 11:02:27 PM 53.1500 -56.7167 55° Northeast 530 610 33,000  Level Gander Center
Tue 11:03:27 PM 53.2167 -56.5000 63° Northeast 530 610 33,000  Level Gander Center
Tue 11:04:27 PM 53.3167 -56.3000 50° Northeast 530 610 33,000  Level Gander Center
Tue 11:05:27 PM 53.3833 -56.1000 61° Northeast 530 610 33,000  Level Gander Center
Tue 11:06:27 PM 53.4833 -55.8833 52° Northeast 530 610 33,000  Level Gander Center
Tue 11:07:27 PM 53.5500 -55.6833 61° Northeast 540 621 33,000  Level Gander Center
Tue 11:08:27 PM 53.6333 -55.4667 57° Northeast 540 621 33,000  Level Gander Center
Tue 11:09:27 PM 53.7333 -55.2667 50° Northeast 540 621 33,000  Level Gander Center
Tue 11:10:27 PM 53.8000 -55.0500 62° Northeast 540 621 33,000  Level Gander Center
Tue 11:11:10 PM 53.8833 -54.8833 50° Northeast 540 621 33,000  Level Moncton Center
Tue 11:11:27 PM 53.9000 -54.8333 60° Northeast 540 621 33,000  Level Gander Center
Tue 11:12:27 PM 54.0167 -54.5833 51° Northeast 540 621 33,000  Level Gander Center
Tue 11:13:27 PM 54.0833 -54.4667 46° Northeast 530 610 33,000  Level Gander Center
Tue 11:14:27 PM 54.1667 -54.2833 52° Northeast 540 621 33,000  Level Gander Center
Tue 11:15:27 PM 54.2500 -54.0667 57° Northeast 540 621 33,000  Level Gander Center
Tue 11:16:27 PM 54.3500 -53.8833 47° Northeast 540 621 33,000  Level Gander Center
Tue 11:17:27 PM 54.4333 -53.6667 56° Northeast 540 621 33,000  Level Gander Center
Tue 11:18:27 PM 54.5333 -53.4333 53° Northeast 540 621 33,000  Level Gander Center
Tue 11:19:27 PM 54.6167 -53.2500 52° Northeast 540 621 33,000  Level Gander Center
Tue 11:21:00 PM 54.7436 -52.9969 49° Northeast  Level FlightAware Approximate
Tue 11:21:51 PM 54.8333 -52.7333 49° Northeast 320 368 33,000  Level Gander Center
Tue 11:22:51 PM 54.9333 -52.5500 46° Northeast 520 598 33,000  Level Gander Center
Tue 11:23:51 PM 55.0167 -52.3167 58° Northeast 540 621 33,000  Level Gander Center
Tue 11:24:15 PM 55.0500 -52.2500 49° Northeast 540 621 33,000  Level Gander Center
Tue 11:24:51 PM 55.1000 -52.1000 60° Northeast 540 621 33,000  Level Gander Center
Tue 11:25:15 PM 55.1500 -52.0333 37° Northeast 540 621 33,000  Level Gander Center
Tue 11:26:15 PM 55.2333 -51.8333 54° Northeast 540 621 33,000  Level Gander Center
Tue 11:26:51 PM 55.2833 -51.7000 57° Northeast 540 621 33,000  Level Gander Center
Tue 11:27:51 PM 55.3667 -51.4667 58° Northeast 540 621 33,000  Level Gander Center
Tue 11:28:15 PM 55.4000 -51.3833 55° Northeast 540 621 33,000  Level Gander Center
Tue 11:28:51 PM 55.4667 -51.2667 45° Northeast 540 621 33,000  Level Gander Center
Tue 11:29:51 PM 55.5500 -51.0333 58° Northeast 540 621 33,000  Level Gander Center
Tue 11:30:15 PM 55.5833 -50.9500 55° Northeast 540 621 33,000  Level Gander Center
Tue 11:31:15 PM 55.6667 -50.7500 53° Northeast 540 621 33,000  Level Gander Center
Tue 11:33:00 PM 55.7644 -50.5326 51° Northeast  Level FlightAware Approximate
Tue 11:40:00 PM 56.3111 -49.1343 57° Northeast  Level FlightAware Approximate
Tue 11:41:00 PM 56.3840 -48.9268 58° Northeast  Level FlightAware Approximate
Tue 11:42:00 PM 56.4565 -48.7182 58° Northeast  Level FlightAware Approximate
Tue 11:43:00 PM 56.5284 -48.5086 58° Northeast  Level FlightAware Approximate
Tue 11:43:25 PM 56.6833 -47.9833 59° Northeast 550 633 33,000  Level Gander Center
Tue 11:44:00 PM 56.6000 -48.2983 58° Northeast  Level FlightAware Approximate
Tue 11:44:25 PM 56.7667 -47.7333 59° Northeast 550 633 33,000  Level Gander Center
Tue 11:45:00 PM 56.6712 -48.0871 58° Northeast  Level FlightAware Approximate
Tue 11:45:25 PM 56.8500 -47.4833 59° Northeast 550 633 33,000  Level Gander Center
Tue 11:46:00 PM 56.7421 -47.8752 59° Northeast  Level FlightAware Approximate
Tue 11:46:25 PM 56.9167 -47.2500 62° Northeast 550 633 33,000  Level Gander Center
Tue 11:47:00 PM 56.8126 -47.6625 59° Northeast  Level FlightAware Approximate
Tue 11:47:25 PM 57.0000 -47.0333 55° Northeast 550 633 33,000  Level Gander Center
Tue 11:48:00 PM 56.8817 -47.4479 59° Northeast  Level FlightAware Approximate
Tue 11:48:25 PM 57.0833 -46.7833 58° Northeast 550 633 33,000  Level Gander Center
Tue 11:49:25 PM 57.1500 -46.5333 64° Northeast 550 633 33,000  Level Gander Center
Tue 11:50:25 PM 57.2167 -46.2833 64° Northeast 550 633 33,000  Level Gander Center
Tue 11:51:25 PM 57.3000 -46.0667 54° Northeast 550 633 33,000  Level Gander Center
Tue 11:52:25 PM 57.3833 -45.8167 58° Northeast 550 633 33,000  Level Gander Center
Tue 11:53:25 PM 57.4500 -45.5667 64° Northeast 550 633 33,000  Level Gander Center
Tue 11:54:25 PM 57.5333 -45.3000 60° Northeast 550 633 33,000  Level Gander Center
Tue 11:55:25 PM 57.6000 -45.0833 60° Northeast 550 633 33,000  Level Gander Center
Tue 11:56:25 PM 57.6667 -44.8333 63° Northeast 550 633 33,000  Level Gander Center
Tue 11:57:25 PM 57.7500 -44.5833 58° Northeast 550 633 33,000  Level Gander Center
Tue 11:58:25 PM 57.8167 -44.3167 65° Northeast 550 633 33,000  Level Gander Center
Tue 11:59:25 PM 57.9000 -44.0833 56° Northeast 550 633 33,000  Level Gander Center
Wed 12:00:25 AM 57.9667 -43.8333 63° Northeast 550 633 33,000  Level Gander Center
Wed 12:01:25 AM 58.0333 -43.5667 65° Northeast 550 633 33,000  Level Gander Center
Wed 12:02:25 AM 58.1000 -43.3167 63° Northeast 550 633 33,000  Level Gander Center
Wed 12:03:25 AM 58.1833 -43.0500 59° Northeast 550 633 33,000  Level Gander Center
Wed 12:04:25 AM 58.2500 -42.8167 61° Northeast 550 633 33,000  Level Gander Center
Wed 12:05:25 AM 58.3167 -42.5500 64° Northeast 550 633 33,000  Level Gander Center
Wed 12:06:25 AM 58.3833 -42.2833 64° Northeast 550 633 33,000  Level Gander Center
Wed 12:07:25 AM 58.4500 -42.0333 63° Northeast 550 633 33,000  Level Gander Center
Wed 12:08:25 AM 58.5167 -41.7833 63° Northeast 550 633 33,000  Level Gander Center
Wed 12:09:25 AM 58.6000 -41.5167 59° Northeast 550 633 33,000  Level Gander Center
Wed 12:10:25 AM 58.6500 -41.2500 70° East 540 621 33,000  Level Gander Center
Wed 12:11:25 AM 58.7167 -41.0167 61° Northeast 540 621 33,000  Level Gander Center
Wed 12:12:25 AM 58.7833 -40.7500 64° Northeast 540 621 33,000  Level Gander Center
Wed 12:13:25 AM 58.8500 -40.4833 64° Northeast 540 621 33,000  Level Gander Center
Wed 12:14:25 AM 58.9167 -40.2333 63° Northeast 540 621 33,000  Level Gander Center
Wed 12:15:25 AM 58.9667 -39.9667 70° East 540 621 33,000  Level Gander Center
Wed 12:16:25 AM 59.0333 -39.7000 64° Northeast 540 621 33,000  Level Gander Center
Wed 12:17:25 AM 59.1000 -39.4500 62° Northeast 540 621 33,000  Level Gander Center
Wed 12:18:25 AM 59.1667 -39.1667 65° Northeast 540 621 33,000  Level Gander Center
Wed 12:19:25 AM 59.2333 -38.9333 61° Northeast 530 610 33,000  Level Gander Center
Wed 12:20:25 AM 59.2833 -38.6833 69° East 530 610 33,000  Level Gander Center
Wed 12:21:25 AM 59.3500 -38.4000 65° Northeast 530 610 33,000  Level Gander Center
Wed 12:22:25 AM 59.4000 -38.1667 67° East 530 610 33,000  Level Gander Center
Wed 12:23:25 AM 59.4667 -37.8833 65° Northeast 530 610 33,000  Level Gander Center
Wed 12:24:25 AM 59.5167 -37.6333 68° East 530 610 33,000  Level Gander Center
Wed 12:25:25 AM 59.5833 -37.3833 62° Northeast 530 610 33,000  Level Gander Center
Wed 12:26:25 AM 59.6333 -37.1000 71° East 530 610 33,000  Level Gander Center
Wed 12:27:25 AM 59.7000 -36.8500 62° Northeast 530 610 33,000  Level Gander Center
Wed 12:28:25 AM 59.7500 -36.6000 68° East 530 610 33,000  Level Gander Center
Wed 12:29:25 AM 59.8167 -36.3167 65° Northeast 530 610 33,000  Level Gander Center
Wed 12:30:25 AM 59.8667 -36.0500 69° East 530 610 33,000  Level Gander Center
Wed 12:31:25 AM 59.9333 -35.7667 65° Northeast 520 598 33,000  Level Gander Center
Wed 12:32:25 AM 59.9833 -35.5167 68° East 520 598 33,000  Level Gander Center
Wed 12:33:25 AM 60.0333 -35.2667 68° East 520 598 33,000  Level Gander Center
Wed 12:34:25 AM 60.0833 -35.0167 68° East 520 598 33,000  Level Gander Center
Wed 12:36:00 AM 60.1829 -34.5302 67° East  Level FlightAware Approximate
Wed 12:43:00 AM 60.6014 -32.3450 68° East  Level FlightAware Approximate
Wed 12:44:00 AM 60.6582 -32.0282 70° East  Level FlightAware Approximate
Wed 12:45:00 AM 60.7143 -31.7104 70° East  Level FlightAware Approximate
Wed 12:46:00 AM 60.7696 -31.3914 70° East  Level FlightAware Approximate
Wed 12:47:00 AM 60.8242 -31.0714 71° East  Level FlightAware Approximate
Wed 12:48:00 AM 60.8780 -30.7503 71° East  Level FlightAware Approximate
Wed 12:49:00 AM 60.9310 -30.4281 71° East  Level FlightAware Approximate
Wed 12:50:00 AM 60.9833 -30.1048 71° East  Level FlightAware Approximate
Wed 12:51:00 AM 61.0308 -29.7779 74° East  Level FlightAware Approximate
Wed 12:52:00 AM 61.0756 -29.4489 74° East  Level FlightAware Approximate
Wed 12:53:00 AM 61.1197 -29.1191 74° East  Level FlightAware Approximate
Wed 12:54:00 AM 61.1629 -28.7883 75° East  Level FlightAware Approximate
Wed 12:55:00 AM 61.2053 -28.4566 75° East  Level FlightAware Approximate
Wed 12:56:00 AM 61.2472 -28.1242 75° East  Level FlightAware Approximate
Wed 12:57:00 AM 61.2885 -27.7909 75° East  Level FlightAware Approximate
Wed 12:58:00 AM 61.3289 -27.4568 76° East  Level FlightAware Approximate
Wed 12:59:00 AM 61.3685 -27.1219 76° East  Level FlightAware Approximate
Wed 01:00:00 AM 61.4072 -26.7861 76° East  Level FlightAware Approximate
Wed 01:01:00 AM 61.4452 -26.4495 77° East  Level FlightAware Approximate
Wed 01:02:00 AM 61.4823 -26.1120 77° East  Level FlightAware Approximate
Wed 01:03:00 AM 61.5185 -25.7738 77° East  Level FlightAware Approximate
Wed 01:04:00 AM 61.5540 -25.4349 78° East  Level FlightAware Approximate
Wed 01:05:00 AM 61.5886 -25.0951 78° East  Level FlightAware Approximate
Wed 01:06:00 AM 61.6224 -24.7546 78° East  Level FlightAware Approximate
Wed 01:07:00 AM 61.6553 -24.4134 78° East  Level FlightAware Approximate
Wed 01:07:02 AM 61.4320 -26.5850 78° East 479 551 33,000  Level FlightAware ADS-B
Wed 01:07:42 AM 61.4520 -26.4050 77° East 477 549 33,000  Level FlightAware ADS-B
Wed 01:08:22 AM 61.4720 -26.2250 77° East 475 547 33,000  Level FlightAware ADS-B
Wed 01:09:07 AM 61.4940 -26.0230 77° East 475 547 33,000  Level FlightAware ADS-B
Wed 01:09:47 AM 61.5130 -25.8420 78° East 479 551 33,000  Level FlightAware ADS-B
Wed 01:10:32 AM 61.5340 -25.6420 77° East 482 555 33,000  Level FlightAware ADS-B
Wed 01:11:12 AM 61.5530 -25.4610 77° East 481 554 33,000 212 Level FlightAware ADS-B
Wed 01:11:57 AM 61.5750 -25.2500 78° East 483 556 33,300 353 Climbing FlightAware ADS-B
Wed 01:12:37 AM 61.5960 -25.0840 75° East 483 556 33,500 150 Climbing FlightAware ADS-B
Wed 01:13:17 AM 61.6160 -24.9300 75° East 483 556 33,500 988 Level FlightAware ADS-B
Wed 01:14:02 AM 61.6550 -24.6930 71° East 489 563 34,900 1,059 Climbing FlightAware ADS-B
Wed 01:14:42 AM 61.6840 -24.5060 72° East 492 566 35,000 71 Climbing FlightAware ADS-B
Wed 01:15:27 AM 61.7130 -24.3100 73° East 490 564 35,000  Level FlightAware ADS-B
Wed 01:16:07 AM 61.7400 -24.1270 73° East 491 565 35,000  Level FlightAware ADS-B
Wed 01:16:47 AM 61.7660 -23.9460 73° East 493 567 35,000  Level FlightAware ADS-B
Wed 01:17:32 AM 61.7970 -23.7300 73° East 495 570 35,000  Level FlightAware ADS-B
Wed 01:18:07 AM 61.8180 -23.5830 73° East 495 570 35,000  Level FlightAware ADS-B
Wed 01:18:57 AM 61.8520 -23.3410 73° East 493 567 35,000  Level FlightAware ADS-B
Wed 01:19:37 AM 61.8770 -23.1610 74° East 492 566 35,000  Level FlightAware ADS-B
Wed 01:20:22 AM 61.9060 -22.9460 74° East 491 565 35,000  Level FlightAware ADS-B
Wed 01:21:02 AM 61.9310 -22.7610 74° East 490 564 35,000  Level FlightAware ADS-B
Wed 01:21:42 AM 61.9550 -22.5780 74° East 491 565 35,000  Level FlightAware ADS-B
Wed 01:22:22 AM 61.9800 -22.3920 74° East 495 570 35,000  Level FlightAware ADS-B
Wed 01:23:07 AM 62.0060 -22.1880 75° East 495 570 35,000  Level FlightAware ADS-B
Wed 01:23:47 AM 62.0310 -21.9970 74° East 499 574 35,000  Level FlightAware ADS-B
Wed 01:24:32 AM 62.0590 -21.7760 75° East 497 572 35,000  Level FlightAware ADS-B
Wed 01:25:12 AM 62.0820 -21.5930 75° East 495 570 35,000  Level FlightAware ADS-B
Wed 01:25:52 AM 62.1050 -21.4020 75° East 496 571 35,000  Level FlightAware ADS-B
Wed 01:26:37 AM 62.1310 -21.1930 75° East 494 568 35,000  Level FlightAware ADS-B
Wed 01:27:17 AM 62.1530 -21.0070 76° East 498 573 35,000  Level FlightAware ADS-B
Wed 01:28:02 AM 62.1790 -20.7850 76° East 501 577 35,000  Level FlightAware ADS-B
Wed 01:28:42 AM 62.2020 -20.5930 76° East 503 579 35,000  Level FlightAware ADS-B
Wed 01:29:22 AM 62.2240 -20.3980 76° East 505 581 35,000  Level FlightAware ADS-B
Wed 01:30:07 AM 62.2490 -20.1840 76° East 505 581 35,000  Level FlightAware ADS-B
Wed 01:30:47 AM 62.2700 -19.9900 77° East 505 581 35,000  Level FlightAware ADS-B
Wed 01:31:32 AM 62.2940 -19.7740 76° East 504 580 35,000  Level FlightAware ADS-B
Wed 01:32:12 AM 62.3150 -19.5770 77° East 503 579 35,000  Level FlightAware ADS-B
Wed 01:32:52 AM 62.3360 -19.3840 77° East 500 575 35,000  Level FlightAware ADS-B
Wed 01:33:37 AM 62.3580 -19.1720 77° East 499 574 35,000  Level FlightAware ADS-B
Wed 01:34:17 AM 62.3790 -18.9750 77° East 499 574 35,000  Level FlightAware ADS-B
Wed 01:34:57 AM 62.3990 -18.7800 77° East 501 577 35,000  Level FlightAware ADS-B
Wed 01:35:42 AM 62.4210 -18.5530 78° East 505 581 35,000  Level FlightAware ADS-B
Wed 01:36:22 AM 62.4410 -18.3600 77° East 506 582 35,000  Level FlightAware ADS-B
Wed 01:37:07 AM 62.4620 -18.1400 78° East 507 583 35,000  Level FlightAware ADS-B
Wed 01:37:47 AM 62.4810 -17.9410 78° East 508 585 35,000  Level FlightAware ADS-B
Wed 01:38:32 AM 62.5020 -17.7150 79° East 508 585 35,000  Level FlightAware ADS-B
Wed 01:39:12 AM 62.5210 -17.5140 78° East 508 585 35,000  Level FlightAware ADS-B
Wed 01:39:57 AM 62.5400 -17.2960 79° East 509 586 35,000  Level FlightAware ADS-B
Wed 01:40:37 AM 62.5580 -17.0950 79° East 509 586 35,000  Level FlightAware ADS-B
Wed 01:41:17 AM 62.5760 -16.8950 79° East 506 582 35,000  Level FlightAware ADS-B
Wed 01:42:02 AM 62.5950 -16.6680 80° East 505 581 35,000  Level FlightAware ADS-B
Wed 01:42:42 AM 62.6120 -16.4710 79° East 503 579 35,000  Level FlightAware ADS-B
Wed 01:43:22 AM 62.6280 -16.2730 80° East 500 575 35,000  Level FlightAware ADS-B
Wed 01:44:07 AM 62.6460 -16.0560 80° East 499 574 35,000  Level FlightAware ADS-B
Wed 01:44:52 AM 62.6640 -15.8280 80° East 499 574 35,000  Level FlightAware ADS-B
Wed 01:45:32 AM 62.6790 -15.6390 80° East 498 573 35,000  Level FlightAware ADS-B
Wed 01:46:12 AM 62.6940 -15.4370 81° East 500 575 35,000  Level FlightAware ADS-B
Wed 01:46:57 AM 62.7110 -15.2170 80° East 501 577 35,000  Level FlightAware ADS-B
Wed 01:47:37 AM 62.7250 -15.0150 81° East 502 578 35,000  Level FlightAware ADS-B
Wed 01:48:22 AM 62.7420 -14.7860 81° East 501 577 35,000  Level FlightAware ADS-B
Wed 01:49:02 AM 62.7560 -14.5870 81° East 500 575 35,000  Level FlightAware ADS-B
Wed 01:49:42 AM 62.7690 -14.3980 81° East 499 574 35,000  Level FlightAware ADS-B
Wed 01:50:27 AM 62.7840 -14.1690 82° East 499 574 35,000  Level FlightAware ADS-B
Wed 01:51:07 AM 62.7970 -13.9720 82° East 497 572 35,000  Level FlightAware ADS-B
Wed 01:51:47 AM 62.8100 -13.7720 82° East 496 571 35,000  Level FlightAware ADS-B
Wed 01:52:32 AM 62.8240 -13.5470 82° East 496 571 35,000  Level FlightAware ADS-B
Wed 01:53:12 AM 62.8360 -13.3490 82° East 495 570 35,000  Level FlightAware ADS-B
Wed 01:53:57 AM 62.8490 -13.1300 82° East 496 571 35,000  Level FlightAware ADS-B
Wed 01:54:37 AM 62.8600 -12.9320 83° East 494 568 35,000  Level FlightAware ADS-B
Wed 01:55:17 AM 62.8710 -12.7320 83° East 494 568 35,000  Level FlightAware ADS-B
Wed 01:56:02 AM 62.8840 -12.5080 83° East 495 570 35,000  Level FlightAware ADS-B
Wed 01:56:42 AM 62.8940 -12.3150 83° East 496 571 35,000  Level FlightAware ADS-B
Wed 01:57:27 AM 62.9050 -12.0900 84° East 497 572 35,000  Level FlightAware ADS-B
Wed 01:58:07 AM 62.9160 -11.8890 83° East 498 573 35,000  Level FlightAware ADS-B
Wed 01:58:47 AM 62.9250 -11.6880 84° East 498 573 35,000  Level FlightAware ADS-B
Wed 01:59:32 AM 62.9360 -11.4650 84° East 499 574 35,000  Level FlightAware ADS-B
Wed 02:00:12 AM 62.9450 -11.2560 84° East 499 574 35,000  Level FlightAware ADS-B
Wed 02:00:57 AM 62.9550 -11.0350 84° East 499 574 35,000  Level FlightAware ADS-B
Wed 02:01:37 AM 62.9640 -10.8320 84° East 498 573 35,000  Level FlightAware ADS-B
Wed 02:02:22 AM 62.9730 -10.6100 85° East 495 570 35,000  Level FlightAware ADS-B
Wed 02:03:02 AM 62.9810 -10.4050 85° East 492 566 35,000  Level FlightAware ADS-B
Wed 02:03:42 AM 62.9890 -10.2040 85° East 490 564 35,000  Level FlightAware ADS-B
Wed 02:04:27 AM 62.9970 -9.9830 85° East 490 564 35,000  Level FlightAware ADS-B
Wed 02:05:07 AM 63.0040 -9.7860 85° East 492 566 35,000  Level FlightAware ADS-B
Wed 02:05:52 AM 63.0110 -9.5620 86° East 490 564 35,000  Level FlightAware ADS-B
Wed 02:06:32 AM 63.0170 -9.3770 86° East 489 563 35,000  Level FlightAware ADS-B
Wed 02:07:12 AM 63.0230 -9.1840 86° East 490 564 35,000  Level FlightAware ADS-B
Wed 02:07:52 AM 63.0280 -9.0150 86° East 490 564 35,000  Level FlightAware ADS-B
Wed 02:08:32 AM 63.0340 -8.8450 85° East 490 564 35,000  Level FlightAware ADS-B
Wed 02:09:32 AM 63.0430 -8.4940 87° East 490 564 35,000  Level FlightAware ADS-B
Wed 02:10:12 AM 63.0480 -8.3240 86° East 490 564 35,000  Level FlightAware ADS-B
Wed 02:10:52 AM 63.0540 -8.1550 85° East 490 564 35,000  Level FlightAware ADS-B
Wed 02:11:42 AM 63.0570 -7.8400 89° East 494 568 35,000  Level FlightAware ADS-B
Wed 02:12:22 AM 63.0610 -7.6470 87° East 494 568 35,000  Level FlightAware ADS-B
Wed 02:13:02 AM 63.0640 -7.4420 88° East 493 567 35,000  Level FlightAware ADS-B
Wed 02:13:47 AM 63.0680 -7.2080 88° East 494 568 35,000  Level FlightAware ADS-B
Wed 02:14:27 AM 63.0710 -7.0090 88° East 493 567 35,000  Level FlightAware ADS-B
Wed 02:15:12 AM 63.0740 -6.7860 88° East 494 568 35,000  Level FlightAware ADS-B
Wed 02:15:52 AM 63.0770 -6.5930 88° East 494 568 35,000  Level FlightAware ADS-B
Wed 02:16:32 AM 63.0790 -6.3910 89° East 496 571 35,000  Level FlightAware ADS-B
Wed 02:17:17 AM 63.0810 -6.1540 89° East 496 571 35,000  Level FlightAware ADS-B
Wed 02:17:57 AM 63.0830 -5.9560 89° East 495 570 35,000  Level FlightAware ADS-B
Wed 02:18:42 AM 63.0840 -5.7540 89° East 496 571 35,000  Level FlightAware ADS-B
Wed 02:19:22 AM 63.0850 -5.5330 89° East 497 572 35,000  Level FlightAware ADS-B
Wed 02:20:02 AM 63.0860 -5.3470 89° East 497 572 35,000  Level FlightAware ADS-B
Wed 02:20:42 AM 63.0860 -5.1200 90° East 496 571 35,000  Level FlightAware ADS-B
Wed 02:21:22 AM 63.0860 -4.9240 90° East 496 571 35,000  Level FlightAware ADS-B
Wed 02:22:07 AM 63.0860 -4.6960 90° East 496 571 35,000  Level FlightAware ADS-B
Wed 02:22:52 AM 63.0860 -4.4730 90° East 495 570 35,000  Level FlightAware ADS-B
Wed 02:23:32 AM 63.0850 -4.2680 91° East 495 570 35,000  Level FlightAware ADS-B
Wed 02:24:17 AM 63.0840 -4.0380 90° East 494 568 35,000  Level FlightAware ADS-B
Wed 02:24:57 AM 63.0820 -3.8370 91° East 496 571 35,000  Level FlightAware ADS-B
Wed 02:25:42 AM 63.0800 -3.6220 91° East 496 571 35,000  Level FlightAware ADS-B
Wed 02:26:22 AM 63.0780 -3.4190 91° East 496 571 35,000  Level FlightAware ADS-B
Wed 02:27:02 AM 63.0760 -3.2150 91° East 496 571 35,000  Level FlightAware ADS-B
Wed 02:27:47 AM 63.0730 -2.9900 92° East 496 571 35,000  Level FlightAware ADS-B
Wed 02:28:27 AM 63.0700 -2.8090 92° East 495 570 35,000  Level FlightAware ADS-B
Wed 02:29:12 AM 63.0670 -2.5790 92° East 495 570 35,000  Level FlightAware ADS-B
Wed 02:29:52 AM 63.0630 -2.3900 93° East 495 570 35,000  Level FlightAware ADS-B
Wed 02:30:32 AM 63.0600 -2.1840 92° East 494 568 35,000  Level FlightAware ADS-B
Wed 02:31:17 AM 63.0550 -1.9570 93° East 493 567 35,000  Level FlightAware ADS-B
Wed 02:31:57 AM 63.0500 -1.7450 93° East 493 567 35,000  Level FlightAware ADS-B
Wed 02:32:37 AM 63.0460 -1.5430 92° East 493 567 35,000  Level FlightAware ADS-B
Wed 02:33:22 AM 63.0400 -1.3170 93° East 494 568 35,000  Level FlightAware ADS-B
Wed 02:34:02 AM 63.0350 -1.1160 93° East 494 568 35,000  Level FlightAware ADS-B
Wed 02:34:47 AM 63.0290 -0.9010 93° East 495 570 35,000  Level FlightAware ADS-B
Wed 02:35:27 AM 63.0230 -0.7160 94° East 496 571 35,000  Level FlightAware ADS-B
Wed 02:36:07 AM 63.0170 -0.4980 93° East 496 571 35,000  Level FlightAware ADS-B
Wed 02:36:52 AM 63.0080 -0.2460 94° East 494 568 35,000  Level FlightAware ADS-B
Wed 02:37:32 AM 63.0030 -0.0560 93° East 494 568 35,000  Level FlightAware ADS-B
Wed 02:38:17 AM 63.0120 0.1740 85° East 497 572 35,000  Level FlightAware ADS-B
Wed 02:38:57 AM 63.0250 0.3750 82° East 498 573 35,000  Level FlightAware ADS-B
Wed 02:39:37 AM 63.0390 0.5700 81° East 499 574 35,000  Level FlightAware ADS-B
Wed 02:40:22 AM 63.0540 0.7950 82° East 501 577 35,000  Level FlightAware ADS-B
Wed 02:41:02 AM 63.0670 1.0060 82° East 500 575 35,000  Level FlightAware ADS-B
Wed 02:41:47 AM 63.0810 1.2270 82° East 35,000  Level FlightAware ADS-B
Wed 02:42:22 AM 63.0910 1.3870 82° East 500 575 35,000  Level FlightAware ADS-B
Wed 02:43:07 AM 63.1040 1.5970 82° East 500 575 35,000  Level FlightAware ADS-B
Wed 02:43:47 AM 63.1150 1.7690 82° East 500 575 35,000  Level FlightAware ADS-B
Wed 02:44:27 AM 63.1260 1.9420 82° East 500 575 35,000  Level FlightAware ADS-B
Wed 02:45:12 AM 63.1400 2.2350 84° East 35,000  Level FlightAware ADS-B
Wed 02:46:32 AM 63.1630 2.6730 83° East 35,000  Level FlightAware ADS-B
Wed 02:47:22 AM 63.1750 2.9200 84° East 505 581 35,000  Level FlightAware ADS-B
Wed 02:47:52 AM 63.1830 3.0750 83° East 505 581 35,000  Level FlightAware ADS-B
Wed 02:48:42 AM 63.1960 3.3450 84° East 506 582 35,000  Level FlightAware ADS-B
Wed 02:49:27 AM 63.2060 3.5720 84° East 508 585 35,000  Level FlightAware ADS-B
Wed 02:50:07 AM 63.2140 3.7650 85° East 508 585 35,000  Level FlightAware ADS-B
Wed 02:50:52 AM 63.2250 4.0230 84° East 510 587 35,000  Level FlightAware ADS-B
Wed 02:51:27 AM 63.2320 4.1950 85° East 510 587 35,000  Level FlightAware ADS-B
Wed 02:52:12 AM 63.2420 4.4430 85° East 509 586 35,000  Level FlightAware ADS-B
Wed 02:53:17 AM 63.2540 4.7470 85° East 508 585 35,000  Level FlightAware ADS-B
Wed 02:54:07 AM 63.2630 5.0230 86° East 506 582 35,000  Level FlightAware ADS-B
Wed 02:54:47 AM 63.2700 5.2370 86° East 507 583 35,000  Level FlightAware ADS-B
Wed 02:55:32 AM 63.2780 5.4730 86° East 508 585 35,000  Level FlightAware ADS-B
Wed 02:56:07 AM 63.2830 5.6400 86° East 509 586 35,000  Level FlightAware ADS-B
Wed 02:57:07 AM 63.2920 5.9520 86° East 510 587 35,000  Level FlightAware ADS-B
Wed 02:58:02 AM 63.3000 6.2470 86° East 511 588 35,000  Level FlightAware ADS-B
Wed 02:58:42 AM 63.3060 6.4660 86° East 513 590 35,000  Level FlightAware ADS-B
Wed 02:59:27 AM 63.3100 6.6610 87° East 514 592 35,000  Level FlightAware ADS-B
Wed 03:00:17 AM 63.3170 6.9560 87° East 514 592 35,000  Level FlightAware ADS-B
Wed 03:00:57 AM 63.3210 7.1850 88° East 514 592 35,000  Level FlightAware ADS-B
Wed 03:01:47 AM 63.3260 7.4400 87° East 515 593 35,000  Level FlightAware ADS-B
Wed 03:02:27 AM 63.3290 7.6500 88° East 517 595 35,000  Level FlightAware ADS-B
Wed 03:03:07 AM 63.3320 7.8630 88° East 520 598 35,000  Level FlightAware ADS-B
Wed 03:03:52 AM 63.3360 8.1080 88° East 520 598 35,000  Level FlightAware ADS-B
Wed 03:04:37 AM 63.3390 8.3480 88° East 520 598 35,000  Level FlightAware ADS-B
Wed 03:05:17 AM 63.3410 8.5570 89° East 520 598 35,000  Level FlightAware ADS-B
Wed 03:06:12 AM 63.3400 8.8560 90° East 518 596 35,000  Level FlightAware ADS-B
Wed 03:06:57 AM 63.3320 9.0870 94° East 517 595 35,000  Level FlightAware ADS-B
Wed 03:07:37 AM 63.3230 9.2990 95° East 516 594 35,000  Level FlightAware ADS-B
Wed 03:08:22 AM 63.3110 9.5380 96° East 516 594 35,000  Level FlightAware ADS-B
Wed 03:09:12 AM 63.2990 9.7840 96° East 514 592 35,000  Level FlightAware ADS-B
Wed 03:09:57 AM 63.2850 10.0390 97° East 513 590 35,000  Level FlightAware ADS-B
Wed 03:10:37 AM 63.2760 10.2200 96° East 513 590 35,000  Level FlightAware ADS-B
Wed 03:11:22 AM 63.2610 10.4780 97° East 513 590 35,000  Level FlightAware ADS-B
Wed 03:12:17 AM 63.2450 10.7570 97° East 510 587 35,000  Level FlightAware ADS-B
Wed 03:13:02 AM 63.2310 10.9870 98° East 511 588 35,000  Level FlightAware ADS-B
Wed 03:13:42 AM 63.2190 11.1980 97° East 512 589 35,000  Level FlightAware ADS-B
Wed 03:14:27 AM 63.2040 11.4280 98° East 511 588 35,000  Level FlightAware ADS-B
Wed 03:15:02 AM 63.1920 11.6140 98° East 511 588 35,000  Level FlightAware ADS-B
Wed 03:15:47 AM 63.1770 11.8400 98° East 511 588 35,000  Level FlightAware ADS-B
Wed 03:16:32 AM 63.1620 12.0700 98° East 511 588 35,000  Level FlightAware ADS-B
Wed 03:17:07 AM 63.1490 12.2580 99° East 511 588 35,000  Level FlightAware ADS-B
Wed 03:17:52 AM 63.1330 12.4890 99° East 511 588 35,000  Level FlightAware ADS-B
Wed 03:18:37 AM 63.1170 12.7190 99° East 512 589 35,000  Level FlightAware ADS-B
Wed 03:19:17 AM 63.1020 12.9290 99° East 511 588 35,000  Level FlightAware ADS-B
Wed 03:20:02 AM 63.0850 13.1550 99° East 511 588 35,000  Level FlightAware ADS-B
Wed 03:20:42 AM 63.0690 13.3630 100° East 511 588 35,000  Level FlightAware ADS-B
Wed 03:21:27 AM 63.0510 13.5950 100° East 509 586 35,000  Level FlightAware ADS-B
Wed 03:22:07 AM 63.0350 13.7990 100° East 509 586 35,000  Level FlightAware ADS-B
Wed 03:22:52 AM 63.0170 14.0240 100° East 509 586 35,000  Level FlightAware ADS-B
Wed 03:23:32 AM 63.0000 14.2290 100° East 509 586 35,000  Level FlightAware ADS-B
Wed 03:24:12 AM 62.9830 14.4310 100° East 509 586 35,000  Level FlightAware ADS-B
Wed 03:24:52 AM 62.9660 14.6350 100° East 510 587 35,000  Level FlightAware ADS-B
Wed 03:25:37 AM 62.9460 14.8630 101° East 511 588 35,000  Level FlightAware ADS-B
Wed 03:26:17 AM 62.9280 15.0680 101° East 512 589 35,000  Level FlightAware ADS-B
Wed 03:27:02 AM 62.9080 15.2960 101° East 513 590 35,000  Level FlightAware ADS-B
Wed 03:27:42 AM 62.8890 15.5010 101° East 512 589 35,000  Level FlightAware ADS-B
Wed 03:28:27 AM 62.8670 15.7300 102° East 512 589 35,000  Level FlightAware ADS-B
Wed 03:29:07 AM 62.8480 15.9320 102° East 511 588 35,000  Level FlightAware ADS-B
Wed 03:29:52 AM 62.8260 16.1600 102° East 510 587 35,000  Level FlightAware ADS-B
Wed 03:30:32 AM 62.8060 16.3640 102° East 510 587 35,000  Level FlightAware ADS-B
Wed 03:31:12 AM 62.7860 16.5650 102° East 512 589 35,000  Level FlightAware ADS-B
Wed 03:31:57 AM 62.7630 16.7900 102° East 512 589 35,000  Level FlightAware ADS-B
Wed 03:32:37 AM 62.7420 16.9910 103° East 512 589 35,000  Level FlightAware ADS-B
Wed 03:33:22 AM 62.7180 17.2190 103° East 512 589 35,000  Level FlightAware ADS-B
Wed 03:34:02 AM 62.6970 17.4200 103° East 511 588 35,000  Level FlightAware ADS-B
Wed 03:34:42 AM 62.6750 17.6190 103° East 511 588 35,000  Level FlightAware ADS-B
Wed 03:35:27 AM 62.6500 17.8440 104° East 509 586 35,000  Level FlightAware ADS-B
Wed 03:36:07 AM 62.6280 18.0430 103° East 509 586 35,000  Level FlightAware ADS-B
Wed 03:36:52 AM 62.6030 18.2670 104° East 511 588 35,000  Level FlightAware ADS-B
Wed 03:37:32 AM 62.5790 18.4710 104° East 511 588 35,000  Level FlightAware ADS-B
Wed 03:38:12 AM 62.5560 18.6680 104° East 511 588 35,000  Level FlightAware ADS-B
Wed 03:38:57 AM 62.5300 18.8920 104° East 513 590 35,000  Level FlightAware ADS-B
Wed 03:39:37 AM 62.5060 19.0940 104° East 512 589 35,000  Level FlightAware ADS-B
Wed 03:40:22 AM 62.4780 19.3170 105° East 514 592 35,000  Level FlightAware ADS-B
Wed 03:41:02 AM 62.4540 19.5130 105° East 512 589 35,000  Level FlightAware ADS-B
Wed 03:41:42 AM 62.4290 19.7150 105° East 511 588 35,000  Level FlightAware ADS-B
Wed 03:42:27 AM 62.4000 19.9340 106° East 512 589 35,000  Level FlightAware ADS-B
Wed 03:43:07 AM 62.3730 20.1300 106° East 511 588 35,000  Level FlightAware ADS-B
Wed 03:43:47 AM 62.3440 20.3280 107° East 511 588 35,000  Level FlightAware ADS-B
Wed 03:44:32 AM 62.3130 20.5470 107° East 511 588 35,000  Level FlightAware ADS-B
Wed 03:45:12 AM 62.2850 20.7390 107° East 512 589 35,000  Level FlightAware ADS-B
Wed 03:45:57 AM 62.2530 20.9570 107° East 512 589 35,000  Level FlightAware ADS-B
Wed 03:46:37 AM 62.2240 21.1530 108° East 512 589 35,000  Level FlightAware ADS-B
Wed 03:47:17 AM 62.1960 21.3430 107° East 512 589 35,000  Level FlightAware ADS-B
Wed 03:47:57 AM 62.1660 21.5410 108° East 515 593 35,000  Level FlightAware ADS-B
Wed 03:50:00 AM 62.0141 22.1812 117° Southeast  Level Estimated
Wed 03:51:00 AM 61.9389 22.4911 117° Southeast  Level Estimated
Wed 03:52:00 AM 61.8630 22.7995 117° Southeast  Level Estimated
Wed 03:53:00 AM 61.7865 23.1064 118° Southeast  Level Estimated
Wed 03:54:00 AM 61.7092 23.4118 118° Southeast  Level Estimated
Wed 03:55:00 AM 61.6313 23.7156 118° Southeast  Level Estimated
Wed 03:56:00 AM 61.5527 24.0179 119° Southeast  Level Estimated
Wed 03:56:12 AM 61.7770 23.8750 119° Southeast 514 592 35,000  Level FlightAware ADS-B
Wed 03:56:52 AM 61.7420 24.0630 111° Southeast 513 590 35,000  Level FlightAware ADS-B
Wed 03:57:37 AM 61.7040 24.2690 111° Southeast 512 589 35,000  Level FlightAware ADS-B
Wed 03:58:17 AM 61.6680 24.4590 112° Southeast 514 592 35,000  Level FlightAware ADS-B
Wed 03:58:57 AM 61.6340 24.6370 112° Southeast 513 590 35,000  Level FlightAware ADS-B
Wed 03:59:42 AM 61.5920 24.8550 112° Southeast 514 592 35,000  Level FlightAware ADS-B
Wed 04:00:17 AM 61.5650 24.9990 111° Southeast 514 592 35,000  Level FlightAware ADS-B
Wed 04:01:07 AM 61.5170 25.2420 112° Southeast 513 590 35,000  Level FlightAware ADS-B
Wed 04:01:47 AM 61.4800 25.4270 113° Southeast 514 592 35,000  Level FlightAware ADS-B
Wed 04:02:27 AM 61.4440 25.6060 113° Southeast 512 589 35,000  Level FlightAware ADS-B
Wed 04:03:07 AM 61.4080 25.7890 112° Southeast 510 587 35,000  Level FlightAware ADS-B
Wed 04:03:47 AM 61.3710 25.9700 113° Southeast 510 587 35,000  Level FlightAware ADS-B
Wed 04:04:27 AM 61.3420 26.1110 113° Southeast 513 590 35,000  Level FlightAware ADS-B
Wed 04:05:17 AM 61.2950 26.3400 113° Southeast 512 589 35,000  Level FlightAware ADS-B
Wed 04:05:52 AM 61.2610 26.5020 114° Southeast 511 588 35,000  Level FlightAware ADS-B
Wed 04:06:47 AM 61.2080 26.7520 114° Southeast 509 586 35,000  Level FlightAware ADS-B
Wed 04:07:32 AM 61.1640 26.9580 114° Southeast 507 583 35,000  Level FlightAware ADS-B
Wed 04:08:17 AM 61.1260 27.1330 114° Southeast 505 581 35,000  Level FlightAware ADS-B
Wed 04:09:02 AM 61.0800 27.3460 114° Southeast 505 581 35,000  Level FlightAware ADS-B
Wed 04:09:37 AM 61.0470 27.4980 114° Southeast 506 582 35,000  Level FlightAware ADS-B
Wed 04:10:17 AM 61.0080 27.6730 115° Southeast 507 583 35,000  Level FlightAware ADS-B
Wed 04:11:07 AM 60.9610 27.8860 114° Southeast 505 581 35,000  Level FlightAware ADS-B
Wed 04:11:47 AM 60.9180 28.0770 115° Southeast 504 580 35,000  Level FlightAware ADS-B
Wed 04:12:27 AM 60.8800 28.2420 115° Southeast 503 579 35,000  Level FlightAware ADS-B
Wed 04:13:32 AM 60.7970 28.4710 127° Southeast 496 571 35,000  Level FlightAware ADS-B
Wed 04:14:17 AM 60.7070 28.6590 134° Southeast 497 572 35,000  Level FlightAware ADS-B
Wed 04:15:12 AM 60.6310 28.8180 134° Southeast 498 573 35,000  Level FlightAware ADS-B
Wed 04:16:02 AM 60.5520 28.9800 135° Southeast 499 574 35,000  Level FlightAware ADS-B
Wed 04:16:32 AM 60.5060 29.0760 134° Southeast 499 574 35,000  Level FlightAware ADS-B
Wed 04:17:22 AM 60.4190 29.2540 135° Southeast 500 575 35,000  Level FlightAware ADS-B
Wed 04:18:02 AM 60.3550 29.3850 135° Southeast 501 577 35,000  Level FlightAware ADS-B
Wed 04:18:47 AM 60.2830 29.5310 135° Southeast 501 577 35,000  Level FlightAware ADS-B
Wed 04:19:32 AM 60.2030 29.6910 135° Southeast 499 574 35,000  Level FlightAware ADS-B
Wed 04:20:12 AM 60.1490 29.7980 135° Southeast 498 573 35,000  Level FlightAware ADS-B
Wed 04:20:57 AM 60.0430 29.9550 143° Southeast 491 565 35,000  Level FlightAware ADS-B
Wed 04:21:32 AM 59.9780 30.0360 148° Southeast 491 565 35,000  Level FlightAware ADS-B
Wed 04:23:02 AM 59.8310 30.2490 144° Southeast 497 572 35,000  Level FlightAware ADS-B
Wed 04:23:17 AM 59.8000 30.3380 125° Southeast 499 574 35,000  Level FlightAware ADS-B
Wed 04:23:52 AM 59.7730 30.4910 109° East 505 581 35,000  Level FlightAware ADS-B
Wed 04:24:27 AM 59.7380 30.6440 114° Southeast 502 578 35,000  Level FlightAware ADS-B
Wed 04:25:07 AM 59.6730 30.7720 135° Southeast 489 563 35,000  Level FlightAware ADS-B
Wed 04:25:52 AM 59.5920 30.9020 141° Southeast 494 568 35,000  Level FlightAware ADS-B
Wed 04:26:32 AM 59.5230 31.0100 142° Southeast 495 570 35,000  Level FlightAware ADS-B
Wed 04:27:12 AM 59.4510 31.1240 141° Southeast 496 571 35,000  Level FlightAware ADS-B
Wed 04:27:57 AM 59.3710 31.2500 141° Southeast 495 570 35,000  Level FlightAware ADS-B
Wed 04:28:37 AM 59.2990 31.3640 141° Southeast 495 570 35,000  Level FlightAware ADS-B
Wed 04:29:17 AM 59.2270 31.4760 141° Southeast 496 571 35,000  Level FlightAware ADS-B
Wed 04:30:02 AM 59.1470 31.6010 141° Southeast 491 565 35,000  Level FlightAware ADS-B
Wed 04:30:42 AM 59.0840 31.7300 134° Southeast 505 581 35,000  Level FlightAware ADS-B
Wed 04:31:27 AM 59.0190 31.8920 128° Southeast 506 582 35,000  Level FlightAware ADS-B
Wed 04:32:07 AM 58.9620 32.0340 128° Southeast 504 580 35,000  Level FlightAware ADS-B
Wed 04:32:47 AM 58.9050 32.1780 127° Southeast 504 580 35,000  Level FlightAware ADS-B
Wed 04:33:32 AM 58.8410 32.3350 128° Southeast 498 573 35,000  Level FlightAware ADS-B
Wed 04:34:12 AM 58.7830 32.4780 128° Southeast 497 572 35,000  Level FlightAware ADS-B
Wed 04:34:57 AM 58.7230 32.6250 128° Southeast 496 571 35,000  Level FlightAware ADS-B
Wed 04:35:37 AM 58.6630 32.7710 128° Southeast 496 571 35,000  Level FlightAware ADS-B
Wed 04:36:17 AM 58.6100 32.9020 128° Southeast 496 571 35,000  Level FlightAware ADS-B
Wed 04:37:17 AM 58.5180 33.1190 129° Southeast 494 568 35,000  Level FlightAware ADS-B
Wed 04:37:57 AM 58.4630 33.2490 129° Southeast 493 567 35,000  Level FlightAware ADS-B
Wed 04:38:37 AM 58.4010 33.3950 129° Southeast 494 568 35,000  Level FlightAware ADS-B
Wed 04:39:22 AM 58.3410 33.5360 129° Southeast 501 577 35,000  Level FlightAware ADS-B
Wed 04:39:57 AM 58.2890 33.6570 129° Southeast 501 577 35,000  Level FlightAware ADS-B
Wed 04:40:47 AM 58.2120 33.8360 129° Southeast 500 575 35,000  Level FlightAware ADS-B
Wed 04:41:27 AM 58.1560 33.9660 129° Southeast 499 574 35,000  Level FlightAware ADS-B
Wed 04:42:02 AM 58.1110 34.0680 130° Southeast 499 574 35,000  Level FlightAware ADS-B
Wed 04:42:52 AM 58.0320 34.2490 129° Southeast 499 574 35,000 75 Level FlightAware ADS-B
Wed 04:43:22 AM 57.9890 34.3480 129° Southeast 500 575 35,100 706 Climbing FlightAware ADS-B
Wed 04:44:17 AM 57.9080 34.5330 129° Southeast 500 575 36,000 1,074 Climbing FlightAware ADS-B
Wed 04:44:57 AM 57.8520 34.6610 129° Southeast 497 572 36,800 750 Climbing FlightAware ADS-B
Wed 04:45:37 AM 57.7930 34.7930 130° Southeast 493 567 37,000 141 Climbing FlightAware ADS-B
Wed 04:46:22 AM 57.7280 34.9380 130° Southeast 492 566 37,000  Level FlightAware ADS-B
Wed 04:46:57 AM 57.6700 35.0560 133° Southeast 490 564 37,000  Level FlightAware ADS-B
Wed 04:47:47 AM 57.5900 35.2090 134° Southeast 490 564 37,000  Level FlightAware ADS-B
Wed 04:48:27 AM 57.5250 35.3320 135° Southeast 490 564 37,000  Level FlightAware ADS-B
Wed 04:49:07 AM 57.4630 35.4490 135° Southeast 492 566 37,000  Level FlightAware ADS-B
Wed 04:49:52 AM 57.3930 35.5800 135° Southeast 492 566 37,000  Level FlightAware ADS-B
Wed 04:50:27 AM 57.3340 35.6910 135° Southeast 490 564 37,000  Level FlightAware ADS-B
Wed 04:51:17 AM 57.2580 35.8320 135° Southeast 490 564 37,000  Level FlightAware ADS-B
Wed 04:51:57 AM 57.1990 35.9420 135° Southeast 491 565 37,000  Level FlightAware ADS-B
Wed 04:52:37 AM 57.1310 36.0680 135° Southeast 490 564 37,000  Level FlightAware ADS-B
Wed 04:53:22 AM 57.0590 36.2000 135° Southeast 492 566 37,000  Level FlightAware ADS-B
Wed 04:54:02 AM 56.9940 36.3190 135° Southeast 492 566 37,000  Level FlightAware ADS-B
Wed 04:54:47 AM 56.9210 36.4550 134° Southeast 493 567 37,000  Level FlightAware ADS-B
Wed 04:55:27 AM 56.8550 36.5780 134° Southeast 495 570 37,000  Level FlightAware ADS-B
Wed 04:56:07 AM 56.7890 36.6960 136° Southeast 495 570 37,000  Level FlightAware ADS-B
Wed 04:56:52 AM 56.7160 36.8240 136° Southeast 496 571 37,000  Level FlightAware ADS-B
Wed 04:57:32 AM 56.6530 36.9380 135° Southeast 496 571 37,000  Level FlightAware ADS-B
Wed 04:58:17 AM 56.5790 37.0670 136° Southeast 495 570 37,000  Level FlightAware ADS-B
Wed 04:58:57 AM 56.5090 37.1720 140° Southeast 489 563 37,000  Level FlightAware ADS-B
Wed 04:59:37 AM 56.4230 37.2270 161° South 492 566 37,000  Level FlightAware ADS-B
Wed 05:00:22 AM 56.3290 37.2860 161° South 491 565 37,000  Level FlightAware ADS-B
Wed 05:01:02 AM 56.2430 37.3300 164° South 491 565 37,000  Level FlightAware ADS-B
Wed 05:01:42 AM 56.1540 37.3740 165° South 492 566 37,000  Level FlightAware ADS-B
Wed 05:02:27 AM 56.0500 37.4260 164° South 492 566 37,000  Level FlightAware ADS-B
Wed 05:03:02 AM 55.9790 37.4610 165° South 491 565 37,000  Level FlightAware ADS-B
Wed 05:03:52 AM 55.8680 37.5160 164° South 489 563 37,000  Level FlightAware ADS-B
Wed 05:04:32 AM 55.7790 37.5600 164° South 487 560 37,000  Level FlightAware ADS-B
Wed 05:05:12 AM 55.7000 37.5990 164° South 485 558 37,000  Level FlightAware ADS-B
Wed 05:05:57 AM 55.6050 37.6450 165° South 487 560 37,000  Level FlightAware ADS-B
Wed 05:06:37 AM 55.5110 37.6910 165° South 489 563 37,000  Level FlightAware ADS-B
Wed 05:07:22 AM 55.4160 37.7370 165° South 490 564 37,000  Level FlightAware ADS-B
Wed 05:08:02 AM 55.3270 37.7790 165° South 491 565 37,000  Level FlightAware ADS-B
Wed 05:08:47 AM 55.2240 37.8290 165° South 493 567 37,000  Level FlightAware ADS-B
Wed 05:09:27 AM 55.1350 37.8710 165° South 496 571 37,000  Level FlightAware ADS-B
Wed 05:10:12 AM 55.0430 37.9150 165° South 497 572 37,000  Level FlightAware ADS-B
Wed 05:10:52 AM 54.9500 37.9590 165° South 498 573 37,000  Level FlightAware ADS-B
Wed 05:11:32 AM 54.8670 37.9980 165° South 499 574 37,000  Level FlightAware ADS-B
Wed 05:12:12 AM 54.7720 38.0420 165° South 500 575 37,000  Level FlightAware ADS-B
Wed 05:12:57 AM 54.6780 38.0860 165° South 502 578 37,000  Level FlightAware ADS-B
Wed 05:13:42 AM 54.5750 38.1330 165° South 502 578 37,000  Level FlightAware ADS-B
Wed 05:14:22 AM 54.4850 38.1750 165° South 499 574 37,000  Level FlightAware ADS-B
Wed 05:15:02 AM 54.3970 38.2150 165° South 495 570 37,000  Level FlightAware ADS-B
Wed 05:15:47 AM 54.2900 38.2630 165° South 494 568 37,000  Level FlightAware ADS-B
Wed 05:16:27 AM 54.2090 38.2980 166° South 489 563 37,000  Level FlightAware ADS-B
Wed 05:17:12 AM 54.1080 38.3410 166° South 489 563 37,000  Level FlightAware ADS-B
Wed 05:17:42 AM 54.0500 38.3660 166° South 489 563 37,000  Level FlightAware ADS-B
Wed 05:18:32 AM 53.9370 38.4140 166° South 487 560 37,000  Level FlightAware ADS-B
Wed 05:19:17 AM 53.8370 38.4570 166° South 489 563 37,000  Level FlightAware ADS-B
Wed 05:19:57 AM 53.7500 38.4940 166° South 491 565 37,000  Level FlightAware ADS-B
Wed 05:20:37 AM 53.6610 38.5260 168° South 492 566 37,000  Level FlightAware ADS-B
Wed 05:21:22 AM 53.5590 38.5570 170° South 492 566 37,000  Level FlightAware ADS-B
Wed 05:22:02 AM 53.4700 38.5860 169° South 493 567 37,000  Level FlightAware ADS-B
Wed 05:22:47 AM 53.3700 38.6180 169° South 496 571 37,000  Level FlightAware ADS-B
Wed 05:23:27 AM 53.2790 38.6480 169° South 500 575 37,000  Level FlightAware ADS-B
Wed 05:24:07 AM 53.1870 38.6780 169° South 505 581 37,000  Level FlightAware ADS-B
Wed 05:24:52 AM 53.0850 38.7110 169° South 507 583 37,000  Level FlightAware ADS-B
Wed 05:25:32 AM 52.9940 38.7400 169° South 509 586 37,000  Level FlightAware ADS-B
Wed 05:26:17 AM 52.8910 38.7730 169° South 508 585 37,000  Level FlightAware ADS-B
Wed 05:26:57 AM 52.7980 38.8030 169° South 507 583 37,000  Level FlightAware ADS-B
Wed 05:27:37 AM 52.7060 38.8320 169° South 505 581 37,000  Level FlightAware ADS-B
Wed 05:28:22 AM 52.6030 38.8640 169° South 504 580 37,000  Level FlightAware ADS-B
Wed 05:29:02 AM 52.5100 38.8940 169° South 504 580 37,000  Level FlightAware ADS-B
Wed 05:29:42 AM 52.4160 38.9240 169° South 506 582 37,000  Level FlightAware ADS-B
Wed 05:29:57 AM 52.3860 38.9540 149° Southeast 506 582 37,000  Level FlightAware ADS-B
Wed 05:30:32 AM 52.3340 39.0370 136° Southeast 504 580 37,000  Level FlightAware ADS-B
Wed 05:31:17 AM 52.2640 39.1710 130° Southeast 504 580 37,000  Level FlightAware ADS-B
Wed 05:32:27 AM 52.1600 39.3700 130° Southeast 504 580 37,000  Level FlightAware ADS-B
Wed 05:33:07 AM 52.1090 39.4690 130° Southeast 504 580 37,000  Level FlightAware ADS-B
Wed 05:33:57 AM 52.0460 39.5920 130° Southeast 504 580 37,000  Level FlightAware ADS-B
Wed 05:34:37 AM 51.9950 39.6910 130° Southeast 504 580 37,000  Level FlightAware ADS-B
Wed 05:35:17 AM 51.9440 39.7890 130° Southeast 504 580 37,000  Level FlightAware ADS-B
Wed 05:35:57 AM 51.8930 39.8880 130° Southeast 504 580 37,000  Level FlightAware ADS-B
Wed 05:36:37 AM 51.8420 39.9860 130° Southeast 504 580 37,000  Level FlightAware ADS-B
Wed 05:37:27 AM 51.7780 40.1090 130° Southeast 504 580 37,000  Level FlightAware ADS-B
Wed 05:38:07 AM 51.6260 40.3310 138° Southeast 508 585 37,000  Level FlightAware ADS-B
Wed 05:38:47 AM 51.5570 40.4350 137° Southeast 508 585 37,000  Level FlightAware ADS-B
Wed 05:39:32 AM 51.4790 40.5530 137° Southeast 509 586 37,000  Level FlightAware ADS-B
Wed 05:40:12 AM 51.4110 40.6560 137° Southeast 507 583 37,000  Level FlightAware ADS-B
Wed 05:40:57 AM 51.3340 40.7700 137° Southeast 506 582 37,000  Level FlightAware ADS-B
Wed 05:41:37 AM 51.2650 40.8730 137° Southeast 506 582 37,000  Level FlightAware ADS-B
Wed 05:42:17 AM 51.1980 40.9740 137° Southeast 505 581 37,000  Level FlightAware ADS-B
Wed 05:43:02 AM 51.1200 41.0880 137° Southeast 507 583 37,000  Level FlightAware ADS-B
Wed 05:43:42 AM 51.0500 41.1920 137° Southeast 508 585 37,000  Level FlightAware ADS-B
Wed 05:44:27 AM 50.9720 41.3060 137° Southeast 508 585 37,000  Level FlightAware ADS-B
Wed 05:45:07 AM 50.9040 41.4050 137° Southeast 510 587 37,000  Level FlightAware ADS-B
Wed 05:45:47 AM 50.8340 41.5070 137° Southeast 512 589 37,000  Level FlightAware ADS-B
Wed 05:46:32 AM 50.7550 41.6210 138° Southeast 513 590 37,000  Level FlightAware ADS-B
Wed 05:47:12 AM 50.6850 41.7210 138° Southeast 515 593 37,000  Level FlightAware ADS-B
Wed 05:47:57 AM 50.6050 41.8350 138° Southeast 515 593 37,000  Level FlightAware ADS-B
Wed 05:48:37 AM 50.5350 41.9360 137° Southeast 514 592 37,000  Level FlightAware ADS-B
Wed 05:49:17 AM 50.4640 42.0370 138° Southeast 516 594 37,000  Level FlightAware ADS-B
Wed 05:50:02 AM 50.3850 42.1480 138° Southeast 516 594 37,000  Level FlightAware ADS-B
Wed 05:50:42 AM 50.3140 42.2480 138° Southeast 515 593 37,000  Level FlightAware ADS-B
Wed 05:51:22 AM 50.2430 42.3470 138° Southeast 514 592 37,000  Level FlightAware ADS-B
Wed 05:52:07 AM 50.1630 42.4580 138° Southeast 515 593 37,000  Level FlightAware ADS-B
Wed 05:52:47 AM 50.0920 42.5560 138° Southeast 516 594 37,000  Level FlightAware ADS-B
Wed 05:53:32 AM 50.0130 42.6660 138° Southeast 515 593 37,000  Level FlightAware ADS-B
Wed 05:54:12 AM 49.9410 42.7640 139° Southeast 515 593 37,000  Level FlightAware ADS-B
Wed 05:54:57 AM 49.8600 42.8750 139° Southeast 515 593 37,000  Level FlightAware ADS-B
Wed 05:55:37 AM 49.7890 42.9720 139° Southeast 516 594 37,000  Level FlightAware ADS-B
Wed 05:56:17 AM 49.7180 43.0670 139° Southeast 517 595 37,000  Level FlightAware ADS-B
Wed 05:57:02 AM 49.6360 43.1780 139° Southeast 518 596 37,000  Level FlightAware ADS-B
Wed 05:57:42 AM 49.5690 43.2680 139° Southeast 518 596 37,000  Level FlightAware ADS-B
Wed 05:58:27 AM 49.4910 43.3720 139° Southeast 518 596 37,000  Level FlightAware ADS-B
Wed 05:59:07 AM 49.4120 43.4770 139° Southeast 519 597 37,000  Level FlightAware ADS-B
Wed 05:59:47 AM 49.3410 43.5710 139° Southeast 519 597 37,000  Level FlightAware ADS-B
Wed 06:00:27 AM 49.2730 43.6610 139° Southeast 517 595 37,000  Level FlightAware ADS-B
Wed 06:01:12 AM 49.1880 43.7780 138° Southeast 514 592 37,000  Level FlightAware ADS-B
Wed 06:01:57 AM 49.1120 43.8850 137° Southeast 514 592 37,000  Level FlightAware ADS-B
Wed 06:02:37 AM 49.0410 43.9850 137° Southeast 514 592 37,000  Level FlightAware ADS-B
Wed 06:03:17 AM 48.9730 44.0800 137° Southeast 515 593 37,000  Level FlightAware ADS-B
Wed 06:04:02 AM 48.8910 44.1930 138° Southeast 516 594 37,000  Level FlightAware ADS-B
Wed 06:04:47 AM 48.8100 44.3030 138° Southeast 517 595 37,000  Level FlightAware ADS-B
Wed 06:05:27 AM 48.7360 44.3900 142° Southeast 517 595 37,000  Level FlightAware ADS-B
Wed 06:06:12 AM 48.6460 44.4840 145° Southeast 518 596 37,000  Level FlightAware ADS-B
Wed 06:06:52 AM 48.5680 44.5630 146° Southeast 518 596 37,000  Level FlightAware ADS-B
Wed 06:07:32 AM 48.4880 44.6450 146° Southeast 518 596 37,000  Level FlightAware ADS-B
Wed 06:08:17 AM 48.4030 44.7320 146° Southeast 518 596 37,000  Level FlightAware ADS-B
Wed 06:08:57 AM 48.3200 44.8170 146° Southeast 518 596 37,000  Level FlightAware ADS-B
Wed 06:09:42 AM 48.2360 44.9010 146° Southeast 518 596 37,000  Level FlightAware ADS-B
Wed 06:09:57 AM 48.1990 44.9390 146° Southeast 37,000  Level FlightAware ADS-B
Wed 06:10:22 AM 48.1550 44.9830 146° Southeast 517 595 37,000  Level FlightAware ADS-B
Wed 06:10:57 AM 48.0920 45.0460 146° Southeast 517 595 37,000  Level FlightAware ADS-B
Wed 06:11:47 AM 47.9830 45.1550 146° Southeast 509 586 37,000  Level FlightAware ADS-B
Wed 06:12:22 AM 47.9110 45.2260 147° Southeast 510 587 37,000  Level FlightAware ADS-B
Wed 06:13:12 AM 47.8150 45.3200 147° Southeast 508 585 37,000  Level FlightAware ADS-B
Wed 06:13:52 AM 47.7360 45.3980 146° Southeast 508 585 37,000  Level FlightAware ADS-B
Wed 06:14:22 AM 47.6840 45.4490 147° Southeast 509 586 37,000  Level FlightAware ADS-B
Wed 06:15:07 AM 47.5920 45.5380 147° Southeast 508 585 37,000  Level FlightAware ADS-B
Wed 06:15:52 AM 47.5030 45.6250 147° Southeast 508 585 37,000  Level FlightAware ADS-B
Wed 06:16:32 AM 47.5730 45.5560 326° Northwest 504 580 37,000  Level FlightAware ADS-B
Wed 06:17:22 AM 47.3260 45.7950 147° Southeast 503 579 37,000  Level FlightAware ADS-B
Wed 06:18:17 AM 47.2220 45.8940 147° Southeast 505 581 37,000  Level FlightAware ADS-B
Wed 06:18:57 AM 47.1380 45.9730 147° Southeast 504 580 37,000  Level FlightAware ADS-B
Wed 06:19:57 AM 47.0310 46.0750 147° Southeast 502 578 37,000  Level FlightAware ADS-B
Wed 06:20:37 AM 46.9490 46.1530 147° Southeast 500 575 37,000  Level FlightAware ADS-B
Wed 06:21:17 AM 46.8730 46.2250 147° Southeast 499 574 37,000  Level FlightAware ADS-B
Wed 06:22:02 AM 46.7860 46.3060 147° Southeast 499 574 37,000  Level FlightAware ADS-B
Wed 06:22:37 AM 46.7160 46.3720 147° Southeast 501 577 37,000  Level FlightAware ADS-B
Wed 06:23:37 AM 46.5940 46.4860 147° Southeast 502 578 37,000  Level FlightAware ADS-B
Wed 06:24:17 AM 46.5150 46.5590 148° Southeast 500 575 37,000  Level FlightAware ADS-B
Wed 06:25:02 AM 46.4330 46.6350 147° Southeast 499 574 37,000  Level FlightAware ADS-B
Wed 06:25:42 AM 46.3600 46.7020 148° Southeast 499 574 37,000  Level FlightAware ADS-B
Wed 06:26:27 AM 46.2630 46.7910 148° Southeast 497 572 37,000  Level FlightAware ADS-B
Wed 06:27:22 AM 46.1670 46.8780 148° Southeast 495 570 37,000  Level FlightAware ADS-B
Wed 06:28:07 AM 46.0720 46.9490 153° Southeast 490 564 37,000  Level FlightAware ADS-B
Wed 06:28:47 AM 46.0000 47.0050 152° Southeast 489 563 37,000  Level FlightAware ADS-B
Wed 06:29:27 AM 45.9330 47.0590 151° Southeast 489 563 37,000  Level FlightAware ADS-B
Wed 06:30:07 AM 45.8660 47.1120 151° Southeast 489 563 37,000  Level FlightAware ADS-B
Wed 06:30:27 AM 45.8370 47.2490 107° East 503 579 37,000  Level FlightAware ADS-B
Wed 06:31:02 AM 45.7920 47.3480 123° Southeast 503 579 37,000  Level FlightAware ADS-B
Wed 06:31:52 AM 45.7420 47.4580 123° Southeast 503 579 37,000  Level FlightAware ADS-B
Wed 06:32:32 AM 45.6990 47.5530 123° Southeast 503 579 37,000  Level FlightAware ADS-B
Wed 06:33:22 AM 45.6140 47.7240 125° Southeast 502 578 37,000  Level FlightAware ADS-B
Wed 06:34:02 AM 45.5590 47.8400 124° Southeast 502 578 37,000  Level FlightAware ADS-B
Wed 06:34:47 AM 45.5500 47.8580 126° Southeast 502 578 37,000  Level FlightAware ADS-B
Wed 06:35:32 AM 45.4410 48.0840 124° Southeast 504 580 37,000  Level FlightAware ADS-B
Wed 06:36:07 AM 45.3940 48.1820 124° Southeast 504 580 37,000  Level FlightAware ADS-B
Wed 06:36:52 AM 45.3350 48.3020 125° Southeast 504 580 37,000  Level FlightAware ADS-B
Wed 06:37:52 AM 45.2890 48.3990 124° Southeast 503 579 37,000  Level FlightAware ADS-B
Wed 06:38:37 AM 45.1980 48.5830 125° Southeast 500 575 37,000  Level FlightAware ADS-B
Wed 06:39:17 AM 45.1430 48.6950 125° Southeast 500 575 37,000  Level FlightAware ADS-B
Wed 06:40:02 AM 45.0840 48.8150 125° Southeast 501 577 37,000  Level FlightAware ADS-B
Wed 06:40:42 AM 45.0300 48.9230 125° Southeast 501 577 37,000  Level FlightAware ADS-B
Wed 06:41:22 AM 44.9790 49.0240 125° Southeast 501 577 37,000  Level FlightAware ADS-B
Wed 06:42:07 AM 44.9170 49.1490 125° Southeast 500 575 37,000  Level FlightAware ADS-B
Wed 06:42:47 AM 44.8650 49.2540 125° Southeast 502 578 37,000  Level FlightAware ADS-B
Wed 06:43:42 AM 44.7950 49.3920 126° Southeast 502 578 37,000  Level FlightAware ADS-B
Wed 06:44:17 AM 44.7470 49.4870 125° Southeast 502 578 37,000  Level FlightAware ADS-B
Wed 06:45:02 AM 44.6750 49.6210 127° Southeast 504 580 37,000  Level FlightAware ADS-B
Wed 06:45:47 AM 44.6120 49.7380 127° Southeast 503 579 37,000  Level FlightAware ADS-B
Wed 06:46:32 AM 44.5500 49.8530 127° Southeast 505 581 37,000  Level FlightAware ADS-B
Wed 06:47:12 AM 44.4930 49.9580 127° Southeast 506 582 37,000  Level FlightAware ADS-B
Wed 06:47:57 AM 44.4300 50.0740 127° Southeast 503 579 37,000  Level FlightAware ADS-B
Wed 06:48:37 AM 44.3740 50.1760 128° Southeast 502 578 37,000  Level FlightAware ADS-B
Wed 06:49:22 AM 44.3140 50.2860 127° Southeast 505 581 37,000  Level FlightAware ADS-B
Wed 06:50:02 AM 44.2530 50.3950 128° Southeast 504 580 37,000  Level FlightAware ADS-B
Wed 06:50:57 AM 44.1760 50.5360 127° Southeast 499 574 37,000  Level FlightAware ADS-B
Wed 06:51:52 AM 44.1080 50.6600 127° Southeast 499 574 37,000  Level FlightAware ADS-B
Wed 06:52:32 AM 44.0610 50.7470 127° Southeast 499 574 37,000  Level FlightAware ADS-B
Wed 06:53:12 AM 44.0130 50.8350 127° Southeast 499 574 37,000  Level FlightAware ADS-B
Wed 06:53:52 AM 43.9660 50.9220 127° Southeast 499 574 37,000  Level FlightAware ADS-B
Wed 06:54:42 AM 43.8630 51.0960 129° Southeast 501 577 37,000  Level FlightAware ADS-B
Wed 06:55:22 AM 43.8160 51.1830 127° Southeast 501 577 37,000  Level FlightAware ADS-B
Wed 06:56:02 AM 43.7680 51.2710 127° Southeast 501 577 37,000  Level FlightAware ADS-B
Wed 06:56:42 AM 43.7210 51.3580 127° Southeast 501 577 37,000  Level FlightAware ADS-B
Wed 06:57:22 AM 43.6730 51.4450 127° Southeast 501 577 37,000  Level FlightAware ADS-B
Wed 06:58:12 AM 43.6140 51.5540 127° Southeast 501 577 37,000  Level FlightAware ADS-B
Wed 06:58:52 AM 43.5670 51.6400 127° Southeast 501 577 37,000  Level FlightAware ADS-B
Wed 06:59:32 AM 43.5190 51.7270 127° Southeast 501 577 37,000  Level FlightAware ADS-B
Wed 07:00:12 AM 43.4720 51.8140 127° Southeast 501 577 37,000  Level FlightAware ADS-B
Wed 07:00:52 AM 43.4240 51.9010 127° Southeast 501 577 37,000  Level FlightAware ADS-B
Wed 07:01:42 AM 43.3650 52.0090 127° Southeast 501 577 37,000  Level FlightAware ADS-B
Wed 07:02:22 AM 43.3180 52.0950 127° Southeast 501 577 37,000  Level FlightAware ADS-B
Wed 07:03:02 AM 43.2700 52.1820 127° Southeast 501 577 37,000  Level FlightAware ADS-B
Wed 07:03:42 AM 43.2230 52.2680 127° Southeast 501 577 37,000 14 Level FlightAware ADS-B
Wed 07:06:00 AM 42.9430 52.6135 138° Southeast  Level Estimated
Wed 07:07:00 AM 42.8209 52.7627 138° Southeast  Level Estimated
Wed 07:08:00 AM 42.6986 52.9113 138° Southeast  Level Estimated
Wed 07:09:00 AM 42.5761 53.0594 138° Southeast  Level Estimated
Wed 07:10:00 AM 42.4535 53.2068 138° Southeast  Level Estimated
Wed 07:11:00 AM 42.3307 53.3537 139° Southeast  Level Estimated
Wed 07:12:00 AM 42.2076 53.5000 139° Southeast  Level Estimated
Wed 07:13:00 AM 42.0844 53.6458 139° Southeast  Level Estimated
Wed 07:14:00 AM 41.9610 53.7910 139° Southeast  Level Estimated
Wed 07:15:00 AM 41.8374 53.9356 139° Southeast  Level Estimated
Wed 07:16:00 AM 41.7137 54.0797 139° Southeast  Level Estimated
Wed 07:17:00 AM 41.5897 54.2232 139° Southeast  Level Estimated
Wed 07:18:00 AM 41.4656 54.3661 139° Southeast  Level Estimated
Wed 07:19:00 AM 41.3413 54.5085 139° Southeast  Level Estimated
Wed 07:20:00 AM 41.2169 54.6504 139° Southeast  Level Estimated
Wed 07:21:00 AM 41.0922 54.7917 139° Southeast  Level Estimated
Wed 07:22:00 AM 40.9674 54.9325 140° Southeast  Level Estimated
Wed 07:23:00 AM 40.8424 55.0728 140° Southeast  Level Estimated
Wed 07:24:00 AM 40.7173 55.2125 140° Southeast  Level Estimated
Wed 07:25:00 AM 40.5920 55.3517 140° Southeast  Level Estimated
Wed 07:26:00 AM 40.4665 55.4904 140° Southeast  Level Estimated
Wed 07:27:00 AM 40.3408 55.6286 140° Southeast  Level Estimated
Wed 07:28:00 AM 40.2150 55.7663 140° Southeast  Level Estimated
Wed 07:29:00 AM 40.0890 55.9034 140° Southeast  Level Estimated
Wed 07:30:00 AM 39.9629 56.0401 140° Southeast  Level Estimated
Wed 07:31:00 AM 39.8366 56.1762 140° Southeast  Level Estimated
Wed 07:32:00 AM 39.7101 56.3118 140° Southeast  Level Estimated
Wed 07:33:00 AM 39.5835 56.4470 141° Southeast  Level Estimated
Wed 07:34:00 AM 39.4567 56.5816 141° Southeast  Level Estimated
Wed 07:35:00 AM 39.3298 56.7158 141° Southeast  Level Estimated
Wed 07:36:00 AM 39.2027 56.8495 141° Southeast  Level Estimated
Wed 07:37:00 AM 39.0755 56.9827 141° Southeast  Level Estimated
Wed 07:38:00 AM 38.9481 57.1154 141° Southeast  Level Estimated
Wed 07:39:00 AM 38.8206 57.2476 141° Southeast  Level Estimated
Wed 07:40:00 AM 38.6929 57.3793 141° Southeast  Level Estimated
Wed 07:41:00 AM 38.5651 57.5106 141° Southeast  Level Estimated
Wed 07:42:00 AM 38.4371 57.6415 141° Southeast  Level Estimated
Wed 07:43:00 AM 38.3090 57.7718 141° Southeast  Level Estimated
Wed 07:44:00 AM 38.1807 57.9017 141° Southeast  Level Estimated
Wed 07:45:00 AM 38.0523 58.0312 142° Southeast  Level Estimated
Wed 07:46:00 AM 37.9238 58.1601 142° Southeast  Level Estimated
Wed 07:47:00 AM 37.7951 58.2887 142° Southeast  Level Estimated
Wed 07:48:00 AM 37.6663 58.4168 142° Southeast  Level Estimated
Wed 07:49:00 AM 37.5370 58.5447 142° Southeast  Level Estimated
Wed 07:50:00 AM 37.4076 58.6722 142° Southeast  Level Estimated
Wed 07:51:00 AM 37.2781 58.7993 142° Southeast  Level Estimated
Wed 07:52:00 AM 37.1484 58.9259 142° Southeast  Level Estimated
Wed 07:53:00 AM 37.0186 59.0521 142° Southeast  Level Estimated
Wed 07:54:00 AM 36.8887 59.1778 142° Southeast  Level Estimated
Wed 07:55:00 AM 36.7586 59.3032 142° Southeast  Level Estimated
Wed 07:56:00 AM 36.6284 59.4281 142° Southeast  Level Estimated
Wed 07:57:00 AM 36.4981 59.5526 142° Southeast  Level Estimated
Wed 07:58:00 AM 36.3676 59.6766 143° Southeast  Level Estimated
Wed 07:59:00 AM 36.2370 59.8003 143° Southeast  Level Estimated
Wed 08:00:00 AM 36.1063 59.9235 143° Southeast  Level Estimated
Wed 08:01:00 AM 35.9755 60.0463 143° Southeast  Level Estimated
Wed 08:02:00 AM 35.8445 60.1688 143° Southeast  Level Estimated
Wed 08:03:00 AM 35.7134 60.2908 143° Southeast  Level Estimated
Wed 08:04:00 AM 35.5822 60.4124 143° Southeast  Level Estimated
Wed 08:05:00 AM 35.4509 60.5336 143° Southeast  Level Estimated
Wed 08:06:00 AM 35.3194 60.6544 143° Southeast  Level Estimated
Wed 08:07:00 AM 35.1879 60.7749 143° Southeast  Level Estimated
Wed 08:08:00 AM 35.0562 60.8949 143° Southeast  Level Estimated
Wed 08:09:00 AM 34.9244 61.0145 143° Southeast  Level Estimated
Wed 08:10:00 AM 34.7924 61.1338 143° Southeast  Level Estimated
Wed 08:11:00 AM 34.6604 61.2527 143° Southeast  Level Estimated
Wed 08:12:00 AM 34.5282 61.3712 144° Southeast  Level Estimated
Wed 08:13:00 AM 34.3960 61.4893 144° Southeast  Level Estimated
Wed 08:14:00 AM 34.2636 61.6071 144° Southeast  Level Estimated
Wed 08:15:00 AM 34.1311 61.7245 144° Southeast  Level Estimated
Wed 08:16:00 AM 33.9985 61.8415 144° Southeast  Level Estimated
Wed 08:17:00 AM 33.8657 61.9582 144° Southeast  Level Estimated
Wed 08:18:00 AM 33.7329 62.0745 144° Southeast  Level Estimated
Wed 08:19:00 AM 33.6000 62.1904 144° Southeast  Level Estimated
Wed 08:20:00 AM 33.4669 62.3060 144° Southeast  Level Estimated
Wed 08:21:00 AM 33.3338 62.4212 144° Southeast  Level Estimated
Wed 08:22:00 AM 33.2005 62.5361 144° Southeast  Level Estimated
Wed 08:23:00 AM 33.0671 62.6506 144° Southeast  Level Estimated
Wed 08:24:00 AM 32.9337 62.7648 144° Southeast  Level Estimated
Wed 08:25:00 AM 32.8001 62.8786 144° Southeast  Level Estimated
Wed 08:26:00 AM 32.6664 62.9921 144° Southeast  Level Estimated
Wed 08:27:00 AM 32.5326 63.1053 144° Southeast  Level Estimated
Wed 08:28:00 AM 32.3988 63.2181 145° Southeast  Level Estimated
Wed 08:29:00 AM 32.2648 63.3305 145° Southeast  Level Estimated
Wed 08:30:00 AM 32.1307 63.4427 145° Southeast  Level Estimated
Wed 08:31:00 AM 31.9965 63.5545 145° Southeast  Level Estimated
Wed 08:32:00 AM 31.8623 63.6660 145° Southeast  Level Estimated
Wed 08:33:00 AM 31.7279 63.7772 145° Southeast  Level Estimated
Wed 08:34:00 AM 31.5934 63.8880 145° Southeast  Level Estimated
Wed 08:35:00 AM 31.4589 63.9986 145° Southeast  Level Estimated
Wed 08:36:00 AM 31.3242 64.1088 145° Southeast  Level Estimated
Wed 08:37:00 AM 31.1894 64.2187 145° Southeast  Level Estimated
Wed 08:38:00 AM 31.0546 64.3282 145° Southeast  Level Estimated
Wed 08:39:00 AM 30.9197 64.4375 145° Southeast  Level Estimated
Wed 08:40:00 AM 30.7846 64.5465 145° Southeast  Level Estimated
Wed 08:41:00 AM 30.6495 64.6551 145° Southeast  Level Estimated
Wed 08:42:00 AM 30.5143 64.7635 145° Southeast  Level Estimated
Wed 08:43:00 AM 30.3790 64.8715 145° Southeast  Level Estimated
Wed 08:44:00 AM 30.2436 64.9793 145° Southeast  Level Estimated
Wed 08:45:00 AM 30.1082 65.0867 146° Southeast  Level Estimated
Wed 08:46:00 AM 29.9726 65.1939 146° Southeast  Level Estimated
Wed 08:47:00 AM 29.8369 65.3008 146° Southeast  Level Estimated
Wed 08:48:00 AM 29.7012 65.4073 146° Southeast  Level Estimated
Wed 08:49:00 AM 29.5654 65.5136 146° Southeast  Level Estimated
Wed 08:50:00 AM 29.4295 65.6196 146° Southeast  Level Estimated
Wed 08:51:00 AM 29.2935 65.7254 146° Southeast  Level Estimated
Wed 08:52:00 AM 29.1574 65.8308 146° Southeast  Level Estimated
Wed 08:53:00 AM 29.0213 65.9360 146° Southeast  Level Estimated
Wed 08:54:00 AM 28.8850 66.0408 146° Southeast  Level Estimated
Wed 08:55:00 AM 28.7487 66.1455 146° Southeast  Level Estimated
Wed 08:56:00 AM 28.6123 66.2498 146° Southeast  Level Estimated
Wed 08:57:00 AM 28.4759 66.3539 146° Southeast  Level Estimated
Wed 08:58:00 AM 28.3393 66.4577 146° Southeast  Level Estimated
Wed 08:59:00 AM 28.2027 66.5612 146° Southeast  Level Estimated
Wed 09:00:00 AM 28.0660 66.6645 146° Southeast  Level Estimated
Wed 09:01:00 AM 27.9292 66.7675 146° Southeast  Level Estimated
Wed 09:02:00 AM 27.7923 66.8702 146° Southeast  Level Estimated
Wed 09:03:00 AM 27.6554 66.9727 146° Southeast  Level Estimated
Wed 09:04:00 AM 27.5184 67.0750 146° Southeast  Level Estimated
Wed 09:05:00 AM 27.3813 67.1769 147° Southeast  Level Estimated
Wed 09:06:00 AM 27.2441 67.2786 147° Southeast  Level Estimated
Wed 09:07:00 AM 27.1069 67.3801 147° Southeast  Level Estimated
Wed 09:08:00 AM 26.9696 67.4813 147° Southeast  Level Estimated
Wed 09:09:00 AM 26.8322 67.5823 147° Southeast  Level Estimated
Wed 09:10:00 AM 26.6947 67.6831 147° Southeast  Level Estimated
Wed 09:11:00 AM 26.5572 67.7835 147° Southeast  Level Estimated
Wed 09:12:00 AM 26.4196 67.8838 147° Southeast  Level Estimated
Wed 09:13:00 AM 26.2820 67.9838 147° Southeast  Level Estimated
Wed 09:14:00 AM 26.1443 68.0836 147° Southeast  Level Estimated
Wed 09:15:00 AM 26.0065 68.1831 147° Southeast  Level Estimated
Wed 09:16:00 AM 25.8686 68.2824 147° Southeast  Level Estimated
Wed 09:17:00 AM 25.7306 68.3815 147° Southeast  Level Estimated
Wed 09:18:00 AM 25.5926 68.4803 147° Southeast  Level Estimated
Wed 09:19:00 AM 25.4543 68.5792 147° Southeast  Level Estimated
Wed 09:20:00 AM 25.3158 68.6778 147° Southeast  Level Estimated
Wed 09:21:00 AM 25.1773 68.7762 147° Southeast  Level Estimated
Wed 09:22:00 AM 25.0387 68.8744 147° Southeast  Level Estimated
Wed 09:23:00 AM 24.9000 68.9723 147° Southeast  Level Estimated
Wed 09:24:00 AM 24.7613 69.0700 147° Southeast  Level Estimated
Wed 09:25:00 AM 24.6225 69.1675 147° Southeast  Level Estimated
Wed 09:26:00 AM 24.4837 69.2648 147° Southeast  Level Estimated
Wed 09:27:00 AM 24.3448 69.3619 148° Southeast  Level Estimated
Wed 09:28:00 AM 24.2059 69.4588 148° Southeast  Level Estimated
Wed 09:28:12 AM 27.4510 67.6150 148° Southeast 491 565 39,000  Level FlightAware ADS-B
Wed 09:28:52 AM 27.3790 67.6620 150° Southeast 489 563 39,000  Level FlightAware ADS-B
Wed 09:29:00 AM 24.0668 69.5554 148° Southeast  Level Estimated
Wed 09:29:37 AM 27.2860 67.7210 151° Southeast 490 564 39,000  Level FlightAware ADS-B
Wed 09:30:17 AM 27.2080 67.7720 150° Southeast 490 564 39,000  Level FlightAware ADS-B
Wed 09:31:02 AM 27.1170 67.8300 150° Southeast 492 566 39,000  Level FlightAware ADS-B
Wed 09:31:42 AM 27.0380 67.8810 150° Southeast 494 568 39,000  Level FlightAware ADS-B
Wed 09:32:27 AM 26.9500 67.9370 150° Southeast 494 568 39,000  Level FlightAware ADS-B
Wed 09:33:07 AM 26.8700 67.9860 151° Southeast 495 570 39,000  Level FlightAware ADS-B
Wed 09:33:52 AM 26.7760 68.0430 152° Southeast 495 570 39,000  Level FlightAware ADS-B
Wed 09:34:32 AM 26.6970 68.0920 151° Southeast 495 570 39,000  Level FlightAware ADS-B
Wed 09:35:17 AM 26.6090 68.1460 151° Southeast 496 571 39,000  Level FlightAware ADS-B
Wed 09:35:57 AM 26.5270 68.1970 151° Southeast 496 571 39,000  Level FlightAware ADS-B
Wed 09:36:37 AM 26.4480 68.2450 151° Southeast 495 570 39,000  Level FlightAware ADS-B
Wed 09:37:22 AM 26.3540 68.3030 151° Southeast 495 570 39,000  Level FlightAware ADS-B
Wed 09:38:02 AM 26.2740 68.3510 152° Southeast 494 568 39,000  Level FlightAware ADS-B
Wed 09:38:42 AM 26.1890 68.3890 158° South 479 551 39,000  Level FlightAware ADS-B
Wed 09:39:27 AM 26.0960 68.4080 170° South 473 544 39,000  Level FlightAware ADS-B
Wed 09:40:07 AM 26.0100 68.4240 171° South 476 548 39,000  Level FlightAware ADS-B
Wed 09:40:52 AM 25.9090 68.4430 170° South 473 544 39,000  Level FlightAware ADS-B
Wed 09:41:32 AM 25.8230 68.4580 171° South 474 545 39,000  Level FlightAware ADS-B
Wed 09:42:17 AM 25.7270 68.4760 170° South 472 543 39,000  Level FlightAware ADS-B
Wed 09:42:57 AM 25.6430 68.4910 171° South 469 540 39,000  Level FlightAware ADS-B
Wed 09:43:37 AM 25.5550 68.5070 171° South 468 539 39,000  Level FlightAware ADS-B
Wed 09:44:22 AM 25.4570 68.5250 171° South 469 540 39,000  Level FlightAware ADS-B
Wed 09:45:02 AM 25.3720 68.5410 170° South 472 543 39,000  Level FlightAware ADS-B
Wed 09:45:47 AM 25.2750 68.5580 171° South 474 545 39,000  Level FlightAware ADS-B
Wed 09:46:27 AM 25.1890 68.5740 170° South 475 547 39,000  Level FlightAware ADS-B
Wed 09:47:12 AM 25.0890 68.5920 171° South 476 548 39,000  Level FlightAware ADS-B
Wed 09:47:52 AM 25.0050 68.6070 171° South 477 549 39,000  Level FlightAware ADS-B
Wed 09:48:32 AM 24.9150 68.6240 170° South 477 549 39,000  Level FlightAware ADS-B
Wed 09:49:17 AM 24.8180 68.6410 171° South 476 548 39,000  Level FlightAware ADS-B
Wed 09:49:57 AM 24.7300 68.6570 171° South 478 550 39,000  Level FlightAware ADS-B
Wed 09:50:37 AM 24.6430 68.6730 171° South 479 551 39,000  Level FlightAware ADS-B
Wed 09:51:22 AM 24.5440 68.6900 171° South 480 552 39,000  Level FlightAware ADS-B
Wed 09:52:02 AM 24.4560 68.7060 171° South 480 552 39,000  Level FlightAware ADS-B
Wed 09:52:47 AM 24.3560 68.7240 171° South 480 552 39,000  Level FlightAware ADS-B
Wed 09:53:27 AM 24.2690 68.7400 170° South 479 551 39,000  Level FlightAware ADS-B
Wed 09:54:12 AM 24.1730 68.7610 169° South 486 559 39,000  Level FlightAware ADS-B
Wed 09:54:37 AM 24.1230 68.7970 147° Southeast 506 582 39,000  Level FlightAware ADS-B
Wed 09:54:52 AM 24.1030 68.8280 125° Southeast 518 596 39,000  Level FlightAware ADS-B
Wed 09:55:32 AM 24.0720 68.9280 109° East 528 608 39,000  Level FlightAware ADS-B
Wed 09:56:17 AM 24.0440 69.0460 105° East 528 608 39,000  Level FlightAware ADS-B
Wed 09:56:57 AM 24.0190 69.1480 105° East 526 605 39,000  Level FlightAware ADS-B
Wed 09:57:42 AM 23.9900 69.2610 106° East 524 603 39,000  Level FlightAware ADS-B
Wed 09:58:22 AM 23.9630 69.3640 106° East 525 604 39,000  Level FlightAware ADS-B
Wed 09:58:57 AM 23.9410 69.4440 107° East 525 604 39,000  Level FlightAware ADS-B
Wed 09:59:47 AM 23.9130 69.5530 106° East 525 604 39,000  Level FlightAware ADS-B
Wed 10:00:27 AM 23.8900 69.6400 106° East 525 604 39,000  Level FlightAware ADS-B
Wed 10:01:07 AM 23.8510 69.7840 106° East 524 603 39,000  Level FlightAware ADS-B
Wed 10:01:47 AM 23.8270 69.8740 106° East 524 603 39,000  Level FlightAware ADS-B
Wed 10:02:27 AM 23.8040 69.9610 106° East 524 603 39,000  Level FlightAware ADS-B
Wed 10:03:17 AM 23.7620 70.1150 107° East 525 604 39,000  Level FlightAware ADS-B
Wed 10:03:57 AM 23.7350 70.2150 106° East 525 604 39,000  Level FlightAware ADS-B
Wed 10:04:37 AM 23.7080 70.3140 107° East 525 604 39,000  Level FlightAware ADS-B
Wed 10:05:17 AM 23.6840 70.4070 106° East 525 604 39,000  Level FlightAware ADS-B
Wed 10:05:57 AM 23.6610 70.4930 106° East 525 604 39,000  Level FlightAware ADS-B
Wed 10:06:47 AM 23.6330 70.6020 106° East 525 604 39,000  Level FlightAware ADS-B
Wed 10:07:27 AM 23.6100 70.6880 106° East 525 604 39,000  Level FlightAware ADS-B
Wed 10:08:07 AM 23.5870 70.7750 106° East 525 604 39,000  Level FlightAware ADS-B
Wed 10:08:52 AM 23.5300 70.9560 109° East 518 596 39,000  Level FlightAware ADS-B
Wed 10:09:32 AM 23.4860 71.0400 120° Southeast 517 595 39,000  Level FlightAware ADS-B
Wed 10:10:12 AM 23.4450 71.1170 120° Southeast 517 595 39,000  Level FlightAware ADS-B
Wed 10:10:52 AM 23.4040 71.1940 120° Southeast 517 595 39,000  Level FlightAware ADS-B
Wed 10:11:32 AM 23.3640 71.2700 120° Southeast 517 595 39,000  Level FlightAware ADS-B
Wed 10:12:22 AM 23.3130 71.3660 120° Southeast 517 595 39,000  Level FlightAware ADS-B
Wed 10:13:02 AM 23.2720 71.4430 120° Southeast 517 595 39,000  Level FlightAware ADS-B
Wed 10:13:42 AM 23.2310 71.5200 120° Southeast 517 595 39,000  Level FlightAware ADS-B
Wed 10:14:22 AM 23.1910 71.5960 120° Southeast 517 595 39,000  Level FlightAware ADS-B
Wed 10:15:02 AM 23.1500 71.6730 120° Southeast 517 595 39,000  Level FlightAware ADS-B
Wed 10:15:37 AM 22.7540 71.5210 199° South 495 570 39,000  Level FlightAware ADS-B
Wed 10:16:12 AM 22.6940 71.5630 147° Southeast 495 570 39,000  Level FlightAware ADS-B
Wed 10:17:02 AM 22.5920 71.6300 149° Southeast 492 566 39,000  Level FlightAware ADS-B
Wed 10:17:42 AM 22.5260 71.6750 148° Southeast 492 566 39,000  Level FlightAware ADS-B
Wed 10:18:22 AM 22.4610 71.7190 148° Southeast 492 566 39,000  Level FlightAware ADS-B
Wed 10:19:02 AM 22.3950 71.7630 148° Southeast 492 566 39,000  Level FlightAware ADS-B
Wed 10:19:52 AM 22.2590 71.8530 149° Southeast 498 573 39,000  Level FlightAware ADS-B
Wed 10:20:32 AM 22.1930 71.8980 148° Southeast 498 573 39,000  Level FlightAware ADS-B
Wed 10:21:12 AM 22.1260 71.9430 148° Southeast 498 573 39,000  Level FlightAware ADS-B
Wed 10:21:52 AM 22.0600 71.9880 148° Southeast 498 573 39,000  Level FlightAware ADS-B
Wed 10:22:32 AM 21.9930 72.0330 148° Southeast 498 573 39,000  Level FlightAware ADS-B
Wed 10:23:22 AM 21.9100 72.0880 148° Southeast 498 573 39,000  Level FlightAware ADS-B
Wed 10:24:02 AM 21.8440 72.1330 148° Southeast 498 573 39,000  Level FlightAware ADS-B
Wed 10:24:27 AM 21.7090 72.2010 155° Southeast 488 562 39,000 -75 Level FlightAware ADS-B
Wed 10:25:22 AM 21.5980 72.2310 166° South 485 558 38,900 -1,020 Descending FlightAware ADS-B
Wed 10:26:07 AM 21.4900 72.2580 167° South 489 563 37,300 -1,412 Descending FlightAware ADS-B
Wed 10:26:47 AM 21.4040 72.2810 166° South 481 554 36,900 -776 Descending FlightAware ADS-B
Wed 10:27:32 AM 21.3090 72.2970 171° South 474 545 36,200 -918 Descending FlightAware ADS-B
Wed 10:28:12 AM 21.2200 72.3090 173° South 470 541 35,600 -1,059 Descending FlightAware ADS-B
Wed 10:28:57 AM 21.1200 72.3230 173° South 470 541 34,700 -1,059 Descending FlightAware ADS-B
Wed 10:29:37 AM 21.0360 72.3370 171° South 471 542 34,100 -975 Descending FlightAware ADS-B
Wed 10:30:17 AM 20.9480 72.3510 172° South 469 540 33,400 -776 Descending FlightAware ADS-B
Wed 10:31:02 AM 20.8530 72.3650 172° South 465 535 33,000 -565 Descending FlightAware ADS-B
Wed 10:31:42 AM 20.7690 72.3790 171° South 470 541 32,600 -975 Descending FlightAware ADS-B
Wed 10:32:22 AM 20.6810 72.3920 172° South 469 540 31,700 -1,341 Descending FlightAware ADS-B
Wed 10:33:07 AM 20.5840 72.4060 172° South 462 532 30,700 -1,467 Descending FlightAware ADS-B
Wed 10:33:52 AM 20.4890 72.4200 172° South 451 519 29,500 -1,765 Descending FlightAware ADS-B
Wed 10:34:32 AM 20.4090 72.4320 172° South 440 506 28,200 -2,175 Descending FlightAware ADS-B
Wed 10:35:12 AM 20.3270 72.4430 173° South 437 503 26,600 -2,250 Descending FlightAware ADS-B
Wed 10:35:52 AM 20.2480 72.4550 172° South 434 499 25,200 -1,906 Descending FlightAware ADS-B
Wed 10:36:37 AM 20.1580 72.4680 172° South 418 481 23,900 -1,835 Descending FlightAware ADS-B
Wed 10:37:17 AM 20.0820 72.4790 172° South 412 474 22,600 -2,047 Descending FlightAware ADS-B
Wed 10:38:02 AM 19.9970 72.4910 172° South 410 472 21,000 -1,976 Descending FlightAware ADS-B
Wed 10:38:42 AM 19.9240 72.5020 172° South 402 463 19,800 -1,694 Descending FlightAware ADS-B
Wed 10:39:27 AM 19.8400 72.5140 172° South 397 457 18,600 -1,271 Descending FlightAware ADS-B
Wed 10:40:07 AM 19.7670 72.5250 172° South 391 450 18,000 -975 Descending FlightAware ADS-B
Wed 10:40:47 AM 19.6950 72.5350 173° South 388 447 17,300 -988 Descending FlightAware ADS-B
Wed 10:41:32 AM 19.6170 72.5460 172° South 385 443 16,600 -1,000 Descending FlightAware ADS-B
Wed 10:42:17 AM 19.5370 72.5580 172° South 385 443 15,800 -988 Descending FlightAware ADS-B
Wed 10:42:57 AM 19.4650 72.5680 173° South 380 437 15,200 -600 Descending FlightAware ADS-B
Wed 10:43:37 AM 19.3940 72.5780 172° South 378 435 15,000 -353 Descending FlightAware ADS-B
Wed 10:44:22 AM 19.3210 72.5990 165° South 374 430 14,700 -800 Descending FlightAware ADS-B
Wed 10:44:37 AM 19.3020 72.6200 134° Southeast 371 427 14,200 -1,800 Descending FlightAware ADS-B
Wed 10:45:02 AM 19.2870 72.6600 112° Southeast 367 422 13,500 -1,971 Descending FlightAware ADS-B
Wed 10:45:47 AM 19.2750 72.7410 99° East 368 423 11,900 -2,047 Descending FlightAware ADS-B
Wed 10:46:27 AM 19.2640 72.8130 99° East 364 419 10,600 -1,575 Descending FlightAware ADS-B
Wed 10:47:07 AM 19.2530 72.8820 100° East 344 396 9,800 -1,286 Descending FlightAware ADS-B
Wed 10:47:37 AM 19.2460 72.9280 99° East 317 365 9,100 -1,418 Descending FlightAware ADS-B
Wed 10:48:02 AM 19.2400 72.9640 100° East 304 350 8,500 -1,350 Descending FlightAware ADS-B
Wed 10:48:17 AM 19.2370 72.9870 98° East 294 338 8,200 -1,200 Descending FlightAware ADS-B
Wed 10:48:47 AM 19.2290 73.0290 101° East 278 320 7,600 -1,333 Descending FlightAware ADS-B
Wed 10:49:02 AM 19.2210 73.0460 116° Southeast 277 319 7,200 -1,650 Descending FlightAware ADS-B
Wed 10:49:27 AM 19.2020 73.0740 126° Southeast 274 315 6,500 -1,200 Descending FlightAware ADS-B
Wed 10:49:42 AM 19.1910 73.0890 128° Southeast 259 298 6,400 -667 Descending FlightAware ADS-B
Wed 10:50:12 AM 19.1720 73.1170 126° Southeast 233 268 6,000 -873 Descending FlightAware ADS-B
Wed 10:50:37 AM 19.1550 73.1400 128° Southeast 214 246 5,600 -1,050 Descending FlightAware ADS-B
Wed 10:50:52 AM 19.1470 73.1500 130° Southeast 210 242 5,300 -1,400 Descending FlightAware ADS-B
Wed 10:51:07 AM 19.1320 73.1580 153° Southeast 214 246 4,900 -1,543 Descending FlightAware ADS-B
Wed 10:51:27 AM 19.1150 73.1590 177° South 215 247 4,400 -1,500 Descending FlightAware ADS-B
Wed 10:51:47 AM 19.0940 73.1540 193° South 208 239 3,900 -857 Descending FlightAware ADS-B
Wed 10:52:02 AM 19.0860 73.1430 232° Southwest 198 228 3,900  Level FlightAware ADS-B
Wed 10:52:32 AM 19.0910 73.1160 281° West 191 220 3,900  Level FlightAware ADS-B
Wed 10:52:42 AM 19.0920 73.1060 276° West 194 223 3,900 -150 Level FlightAware ADS-B
Wed 10:53:12 AM 19.0920 73.0780 270° West 196 226 3,800 -545 Descending FlightAware ADS-B
Wed 10:53:37 AM 19.0910 73.0530 268° West 193 222 3,400 -1,050 Descending FlightAware ADS-B
Wed 10:53:52 AM 19.0910 73.0400 270° West 195 224 3,100 -1,067 Descending FlightAware ADS-B
Wed 10:54:22 AM 19.0910 73.0120 270° West 180 207 2,600 -900 Descending FlightAware ADS-B
Wed 10:54:52 AM 19.0900 72.9870 268° West 163 188 2,200 -873 Descending FlightAware ADS-B
Wed 10:55:17 AM 19.0900 72.9670 270° West 146 168 1,800 -764 Descending FlightAware ADS-B
Wed 10:55:47 AM 19.0900 72.9470 270° West 136 157 1,500 -700 Descending FlightAware ADS-B
Wed 10:56:17 AM 19.0900 72.9290 270° West 136 157 1,100 -655 Descending FlightAware ADS-B
Wed 10:56:42 AM 19.0890 72.9120 266° West 137 158 900 -600 Descending FlightAware ADS-B
Wed 10:56:57 AM 19.0890 72.9000 270° West 137 158 700 -800 Descending FlightAware ADS-B
Wed 10:57:27 AM 19.0890 72.8800 270° West 136 157 300 -800 Descending FlightAware ADS-B

Login

Don't have an account? Register now (free) for customized features, flight alerts, and more!